<?xml version="1.0" encoding="UTF-8" standalone="no" ?>
<gpx xmlns="http://www.topografix.com/GPX/1/1" xmlns:xsi="http://www.w3.org/2001/XMLSchema-instance" xsi:schemaLocation="http://www.topografix.com/GPX/1/1 http://www.topografix.com/GPX/1/1/gpx.xsd" version="1.1" creator="VisuGPX - https://www.visugpx.com">
  <metadata>
    <name>Limant &amp;quot;Les Pigeonniers&amp;quot;</name>
    <desc><![CDATA[13 févr. 2020 à 09:06:51Limans les "Pigeonniers"
]]></desc>
  </metadata>
  <trk>
    <name><![CDATA[13 févr. 2020 à 09:06:51]]></name>
    <cmt><![CDATA[13 févr. 2020 à 09:06:51]]></cmt>
    <trkseg>
      <trkpt lat="43.98545" lon="5.73038">
        <ele>376</ele>
        <time>2020-02-13T08:06:52Z</time>
      </trkpt>
      <trkpt lat="43.98536" lon="5.73049">
        <ele>377</ele>
        <time>2020-02-13T08:07:14Z</time>
      </trkpt>
      <trkpt lat="43.9854" lon="5.73051">
        <ele>376</ele>
        <time>2020-02-13T08:07:29Z</time>
      </trkpt>
      <trkpt lat="43.98538" lon="5.7304">
        <ele>377</ele>
        <time>2020-02-13T08:08:32Z</time>
      </trkpt>
      <trkpt lat="43.9854" lon="5.7303">
        <ele>378</ele>
        <time>2020-02-13T08:08:52Z</time>
      </trkpt>
      <trkpt lat="43.98542" lon="5.73023">
        <ele>378</ele>
        <time>2020-02-13T08:09:10Z</time>
      </trkpt>
      <trkpt lat="43.98542" lon="5.73016">
        <ele>378</ele>
        <time>2020-02-13T08:09:21Z</time>
      </trkpt>
      <trkpt lat="43.98547" lon="5.73006">
        <ele>379</ele>
        <time>2020-02-13T08:10:25Z</time>
      </trkpt>
      <trkpt lat="43.98549" lon="5.73">
        <ele>379</ele>
        <time>2020-02-13T08:10:30Z</time>
      </trkpt>
      <trkpt lat="43.9855" lon="5.72988">
        <ele>379</ele>
        <time>2020-02-13T08:10:45Z</time>
      </trkpt>
      <trkpt lat="43.98552" lon="5.72981">
        <ele>379</ele>
        <time>2020-02-13T08:10:50Z</time>
      </trkpt>
      <trkpt lat="43.98551" lon="5.72972">
        <ele>380</ele>
        <time>2020-02-13T08:10:57Z</time>
      </trkpt>
      <trkpt lat="43.98544" lon="5.72947">
        <ele>383</ele>
        <time>2020-02-13T08:11:26Z</time>
      </trkpt>
      <trkpt lat="43.98544" lon="5.7294">
        <ele>384</ele>
        <time>2020-02-13T08:11:30Z</time>
      </trkpt>
      <trkpt lat="43.98546" lon="5.72934">
        <ele>384</ele>
        <time>2020-02-13T08:11:35Z</time>
      </trkpt>
      <trkpt lat="43.98565" lon="5.72902">
        <ele>389</ele>
        <time>2020-02-13T08:12:10Z</time>
      </trkpt>
      <trkpt lat="43.98583" lon="5.72871">
        <ele>394</ele>
        <time>2020-02-13T08:12:42Z</time>
      </trkpt>
      <trkpt lat="43.98589" lon="5.72861">
        <ele>396</ele>
        <time>2020-02-13T08:12:55Z</time>
      </trkpt>
      <trkpt lat="43.9859" lon="5.72854">
        <ele>397</ele>
        <time>2020-02-13T08:12:59Z</time>
      </trkpt>
      <trkpt lat="43.98594" lon="5.72833">
        <ele>401</ele>
        <time>2020-02-13T08:13:21Z</time>
      </trkpt>
      <trkpt lat="43.98595" lon="5.7282">
        <ele>403</ele>
        <time>2020-02-13T08:13:33Z</time>
      </trkpt>
      <trkpt lat="43.98605" lon="5.72777">
        <ele>407</ele>
        <time>2020-02-13T08:14:06Z</time>
      </trkpt>
      <trkpt lat="43.98612" lon="5.72756">
        <ele>409</ele>
        <time>2020-02-13T08:14:25Z</time>
      </trkpt>
      <trkpt lat="43.98623" lon="5.7271">
        <ele>413</ele>
        <time>2020-02-13T08:15:00Z</time>
      </trkpt>
      <trkpt lat="43.98629" lon="5.72682">
        <ele>414</ele>
        <time>2020-02-13T08:15:20Z</time>
      </trkpt>
      <trkpt lat="43.98628" lon="5.72675">
        <ele>414</ele>
        <time>2020-02-13T08:15:25Z</time>
      </trkpt>
      <trkpt lat="43.9863" lon="5.72667">
        <ele>414</ele>
        <time>2020-02-13T08:15:30Z</time>
      </trkpt>
      <trkpt lat="43.98634" lon="5.72653">
        <ele>416</ele>
        <time>2020-02-13T08:15:40Z</time>
      </trkpt>
      <trkpt lat="43.98636" lon="5.72645">
        <ele>416</ele>
        <time>2020-02-13T08:15:46Z</time>
      </trkpt>
      <trkpt lat="43.98635" lon="5.72629">
        <ele>418</ele>
        <time>2020-02-13T08:16:00Z</time>
      </trkpt>
      <trkpt lat="43.98625" lon="5.72603">
        <ele>422</ele>
        <time>2020-02-13T08:16:22Z</time>
      </trkpt>
      <trkpt lat="43.98624" lon="5.72597">
        <ele>422</ele>
        <time>2020-02-13T08:17:34Z</time>
      </trkpt>
      <trkpt lat="43.9862" lon="5.72592">
        <ele>423</ele>
        <time>2020-02-13T08:17:40Z</time>
      </trkpt>
      <trkpt lat="43.98612" lon="5.72578">
        <ele>424</ele>
        <time>2020-02-13T08:17:53Z</time>
      </trkpt>
      <trkpt lat="43.98603" lon="5.72549">
        <ele>428</ele>
        <time>2020-02-13T08:18:21Z</time>
      </trkpt>
      <trkpt lat="43.98597" lon="5.72511">
        <ele>432</ele>
        <time>2020-02-13T08:18:53Z</time>
      </trkpt>
      <trkpt lat="43.98591" lon="5.7248">
        <ele>436</ele>
        <time>2020-02-13T08:19:17Z</time>
      </trkpt>
      <trkpt lat="43.98588" lon="5.72475">
        <ele>437</ele>
        <time>2020-02-13T08:19:24Z</time>
      </trkpt>
      <trkpt lat="43.98585" lon="5.72471">
        <ele>437</ele>
        <time>2020-02-13T08:19:30Z</time>
      </trkpt>
      <trkpt lat="43.98577" lon="5.72447">
        <ele>440</ele>
        <time>2020-02-13T08:19:49Z</time>
      </trkpt>
      <trkpt lat="43.98575" lon="5.72432">
        <ele>441</ele>
        <time>2020-02-13T08:20:01Z</time>
      </trkpt>
      <trkpt lat="43.98565" lon="5.72401">
        <ele>445</ele>
        <time>2020-02-13T08:20:29Z</time>
      </trkpt>
      <trkpt lat="43.98545" lon="5.72377">
        <ele>449</ele>
        <time>2020-02-13T08:21:01Z</time>
      </trkpt>
      <trkpt lat="43.9854" lon="5.7237">
        <ele>451</ele>
        <time>2020-02-13T08:21:09Z</time>
      </trkpt>
      <trkpt lat="43.98538" lon="5.72327">
        <ele>456</ele>
        <time>2020-02-13T08:21:44Z</time>
      </trkpt>
      <trkpt lat="43.98532" lon="5.72282">
        <ele>461</ele>
        <time>2020-02-13T08:22:21Z</time>
      </trkpt>
      <trkpt lat="43.98521" lon="5.72245">
        <ele>467</ele>
        <time>2020-02-13T08:22:56Z</time>
      </trkpt>
      <trkpt lat="43.98518" lon="5.72231">
        <ele>468</ele>
        <time>2020-02-13T08:23:05Z</time>
      </trkpt>
      <trkpt lat="43.9852" lon="5.72225">
        <ele>469</ele>
        <time>2020-02-13T08:23:13Z</time>
      </trkpt>
      <trkpt lat="43.9852" lon="5.72218">
        <ele>470</ele>
        <time>2020-02-13T08:23:18Z</time>
      </trkpt>
      <trkpt lat="43.98522" lon="5.7219">
        <ele>475</ele>
        <time>2020-02-13T08:23:47Z</time>
      </trkpt>
      <trkpt lat="43.98524" lon="5.72182">
        <ele>477</ele>
        <time>2020-02-13T08:23:57Z</time>
      </trkpt>
      <trkpt lat="43.98528" lon="5.72171">
        <ele>480</ele>
        <time>2020-02-13T08:25:56Z</time>
      </trkpt>
      <trkpt lat="43.98539" lon="5.72142">
        <ele>485</ele>
        <time>2020-02-13T08:26:28Z</time>
      </trkpt>
      <trkpt lat="43.98541" lon="5.72135">
        <ele>486</ele>
        <time>2020-02-13T08:26:34Z</time>
      </trkpt>
      <trkpt lat="43.98544" lon="5.72124">
        <ele>488</ele>
        <time>2020-02-13T08:26:46Z</time>
      </trkpt>
      <trkpt lat="43.98546" lon="5.72116">
        <ele>490</ele>
        <time>2020-02-13T08:26:54Z</time>
      </trkpt>
      <trkpt lat="43.98544" lon="5.72106">
        <ele>492</ele>
        <time>2020-02-13T08:27:07Z</time>
      </trkpt>
      <trkpt lat="43.98538" lon="5.72097">
        <ele>494</ele>
        <time>2020-02-13T08:27:19Z</time>
      </trkpt>
      <trkpt lat="43.98523" lon="5.72086">
        <ele>497</ele>
        <time>2020-02-13T08:27:40Z</time>
      </trkpt>
      <trkpt lat="43.98513" lon="5.72087">
        <ele>499</ele>
        <time>2020-02-13T08:27:54Z</time>
      </trkpt>
      <trkpt lat="43.98504" lon="5.72088">
        <ele>500</ele>
        <time>2020-02-13T08:28:02Z</time>
      </trkpt>
      <trkpt lat="43.98492" lon="5.72074">
        <ele>503</ele>
        <time>2020-02-13T08:29:16Z</time>
      </trkpt>
      <trkpt lat="43.98488" lon="5.7207">
        <ele>504</ele>
        <time>2020-02-13T08:30:32Z</time>
      </trkpt>
      <trkpt lat="43.98481" lon="5.72066">
        <ele>504</ele>
        <time>2020-02-13T08:30:45Z</time>
      </trkpt>
      <trkpt lat="43.98476" lon="5.72061">
        <ele>505</ele>
        <time>2020-02-13T08:30:52Z</time>
      </trkpt>
      <trkpt lat="43.98471" lon="5.72058">
        <ele>505</ele>
        <time>2020-02-13T08:30:57Z</time>
      </trkpt>
      <trkpt lat="43.98468" lon="5.72053">
        <ele>505</ele>
        <time>2020-02-13T08:31:02Z</time>
      </trkpt>
      <trkpt lat="43.98463" lon="5.72052">
        <ele>506</ele>
        <time>2020-02-13T08:31:07Z</time>
      </trkpt>
      <trkpt lat="43.98437" lon="5.72028">
        <ele>508</ele>
        <time>2020-02-13T08:31:38Z</time>
      </trkpt>
      <trkpt lat="43.9843" lon="5.72022">
        <ele>509</ele>
        <time>2020-02-13T08:31:47Z</time>
      </trkpt>
      <trkpt lat="43.98413" lon="5.72013">
        <ele>512</ele>
        <time>2020-02-13T08:32:09Z</time>
      </trkpt>
      <trkpt lat="43.98382" lon="5.72014">
        <ele>517</ele>
        <time>2020-02-13T08:32:41Z</time>
      </trkpt>
      <trkpt lat="43.98377" lon="5.72016">
        <ele>518</ele>
        <time>2020-02-13T08:32:49Z</time>
      </trkpt>
      <trkpt lat="43.98357" lon="5.7204">
        <ele>522</ele>
        <time>2020-02-13T08:33:19Z</time>
      </trkpt>
      <trkpt lat="43.98352" lon="5.72044">
        <ele>523</ele>
        <time>2020-02-13T08:33:26Z</time>
      </trkpt>
      <trkpt lat="43.98345" lon="5.72044">
        <ele>524</ele>
        <time>2020-02-13T08:33:35Z</time>
      </trkpt>
      <trkpt lat="43.98341" lon="5.72037">
        <ele>526</ele>
        <time>2020-02-13T08:33:43Z</time>
      </trkpt>
      <trkpt lat="43.9834" lon="5.72012">
        <ele>530</ele>
        <time>2020-02-13T08:34:04Z</time>
      </trkpt>
      <trkpt lat="43.9834" lon="5.72002">
        <ele>532</ele>
        <time>2020-02-13T08:34:16Z</time>
      </trkpt>
      <trkpt lat="43.98341" lon="5.71984">
        <ele>535</ele>
        <time>2020-02-13T08:34:35Z</time>
      </trkpt>
      <trkpt lat="43.98348" lon="5.71949">
        <ele>541</ele>
        <time>2020-02-13T08:35:16Z</time>
      </trkpt>
      <trkpt lat="43.98352" lon="5.71925">
        <ele>545</ele>
        <time>2020-02-13T08:35:41Z</time>
      </trkpt>
      <trkpt lat="43.98351" lon="5.71919">
        <ele>546</ele>
        <time>2020-02-13T08:35:47Z</time>
      </trkpt>
      <trkpt lat="43.98347" lon="5.71897">
        <ele>550</ele>
        <time>2020-02-13T08:36:11Z</time>
      </trkpt>
      <trkpt lat="43.9834" lon="5.71884">
        <ele>552</ele>
        <time>2020-02-13T08:36:29Z</time>
      </trkpt>
      <trkpt lat="43.98339" lon="5.71877">
        <ele>554</ele>
        <time>2020-02-13T08:36:40Z</time>
      </trkpt>
      <trkpt lat="43.98338" lon="5.71875">
        <ele>556</ele>
        <time>2020-02-13T08:38:50Z</time>
      </trkpt>
      <trkpt lat="43.98338" lon="5.71872">
        <ele>559</ele>
        <time>2020-02-13T08:43:58Z</time>
      </trkpt>
      <trkpt lat="43.98335" lon="5.71865">
        <ele>559</ele>
        <time>2020-02-13T08:44:18Z</time>
      </trkpt>
      <trkpt lat="43.98332" lon="5.71863">
        <ele>559</ele>
        <time>2020-02-13T08:44:48Z</time>
      </trkpt>
      <trkpt lat="43.98327" lon="5.71865">
        <ele>562</ele>
        <time>2020-02-13T08:45:17Z</time>
      </trkpt>
      <trkpt lat="43.98321" lon="5.71859">
        <ele>564</ele>
        <time>2020-02-13T08:45:29Z</time>
      </trkpt>
      <trkpt lat="43.98313" lon="5.71858">
        <ele>566</ele>
        <time>2020-02-13T08:45:41Z</time>
      </trkpt>
      <trkpt lat="43.9831" lon="5.71853">
        <ele>567</ele>
        <time>2020-02-13T08:45:47Z</time>
      </trkpt>
      <trkpt lat="43.98307" lon="5.71847">
        <ele>569</ele>
        <time>2020-02-13T08:45:59Z</time>
      </trkpt>
      <trkpt lat="43.98301" lon="5.71836">
        <ele>573</ele>
        <time>2020-02-13T08:46:23Z</time>
      </trkpt>
      <trkpt lat="43.98301" lon="5.71827">
        <ele>575</ele>
        <time>2020-02-13T08:46:35Z</time>
      </trkpt>
      <trkpt lat="43.98294" lon="5.7182">
        <ele>579</ele>
        <time>2020-02-13T08:46:54Z</time>
      </trkpt>
      <trkpt lat="43.98287" lon="5.71816">
        <ele>581</ele>
        <time>2020-02-13T08:47:11Z</time>
      </trkpt>
      <trkpt lat="43.98282" lon="5.71814">
        <ele>583</ele>
        <time>2020-02-13T08:47:23Z</time>
      </trkpt>
      <trkpt lat="43.98275" lon="5.71815">
        <ele>586</ele>
        <time>2020-02-13T08:47:41Z</time>
      </trkpt>
      <trkpt lat="43.98269" lon="5.71812">
        <ele>588</ele>
        <time>2020-02-13T08:47:53Z</time>
      </trkpt>
      <trkpt lat="43.98255" lon="5.71803">
        <ele>593</ele>
        <time>2020-02-13T08:49:09Z</time>
      </trkpt>
      <trkpt lat="43.9825" lon="5.71801">
        <ele>596</ele>
        <time>2020-02-13T08:49:21Z</time>
      </trkpt>
      <trkpt lat="43.98243" lon="5.718">
        <ele>598</ele>
        <time>2020-02-13T08:49:33Z</time>
      </trkpt>
      <trkpt lat="43.98239" lon="5.71797">
        <ele>600</ele>
        <time>2020-02-13T08:49:45Z</time>
      </trkpt>
      <trkpt lat="43.98228" lon="5.71793">
        <ele>604</ele>
        <time>2020-02-13T08:50:09Z</time>
      </trkpt>
      <trkpt lat="43.98217" lon="5.71786">
        <ele>609</ele>
        <time>2020-02-13T08:50:34Z</time>
      </trkpt>
      <trkpt lat="43.98211" lon="5.71786">
        <ele>611</ele>
        <time>2020-02-13T08:50:47Z</time>
      </trkpt>
      <trkpt lat="43.98199" lon="5.71779">
        <ele>616</ele>
        <time>2020-02-13T08:51:11Z</time>
      </trkpt>
      <trkpt lat="43.98196" lon="5.71773">
        <ele>619</ele>
        <time>2020-02-13T08:53:15Z</time>
      </trkpt>
      <trkpt lat="43.98195" lon="5.71773">
        <ele>620</ele>
        <time>2020-02-13T08:55:16Z</time>
      </trkpt>
      <trkpt lat="43.98191" lon="5.71776">
        <ele>620</ele>
        <time>2020-02-13T08:55:22Z</time>
      </trkpt>
      <trkpt lat="43.98179" lon="5.71778">
        <ele>623</ele>
        <time>2020-02-13T08:55:42Z</time>
      </trkpt>
      <trkpt lat="43.98173" lon="5.71777">
        <ele>625</ele>
        <time>2020-02-13T08:55:54Z</time>
      </trkpt>
      <trkpt lat="43.98167" lon="5.71773">
        <ele>628</ele>
        <time>2020-02-13T08:56:06Z</time>
      </trkpt>
      <trkpt lat="43.98162" lon="5.7177">
        <ele>628</ele>
        <time>2020-02-13T08:56:10Z</time>
      </trkpt>
      <trkpt lat="43.98157" lon="5.71771">
        <ele>630</ele>
        <time>2020-02-13T08:56:18Z</time>
      </trkpt>
      <trkpt lat="43.98152" lon="5.71766">
        <ele>631</ele>
        <time>2020-02-13T08:56:26Z</time>
      </trkpt>
      <trkpt lat="43.98145" lon="5.71765">
        <ele>633</ele>
        <time>2020-02-13T08:56:38Z</time>
      </trkpt>
      <trkpt lat="43.98131" lon="5.71758">
        <ele>638</ele>
        <time>2020-02-13T08:57:05Z</time>
      </trkpt>
      <trkpt lat="43.98119" lon="5.71751">
        <ele>642</ele>
        <time>2020-02-13T08:57:28Z</time>
      </trkpt>
      <trkpt lat="43.98115" lon="5.71746">
        <ele>644</ele>
        <time>2020-02-13T08:57:40Z</time>
      </trkpt>
      <trkpt lat="43.98111" lon="5.7174">
        <ele>646</ele>
        <time>2020-02-13T08:57:52Z</time>
      </trkpt>
      <trkpt lat="43.98107" lon="5.71736">
        <ele>648</ele>
        <time>2020-02-13T08:58:04Z</time>
      </trkpt>
      <trkpt lat="43.98096" lon="5.71733">
        <ele>652</ele>
        <time>2020-02-13T08:58:28Z</time>
      </trkpt>
      <trkpt lat="43.98084" lon="5.71725">
        <ele>656</ele>
        <time>2020-02-13T08:58:55Z</time>
      </trkpt>
      <trkpt lat="43.98079" lon="5.71723">
        <ele>659</ele>
        <time>2020-02-13T09:00:30Z</time>
      </trkpt>
      <trkpt lat="43.98078" lon="5.71715">
        <ele>660</ele>
        <time>2020-02-13T09:01:53Z</time>
      </trkpt>
      <trkpt lat="43.98074" lon="5.7172">
        <ele>662</ele>
        <time>2020-02-13T09:03:05Z</time>
      </trkpt>
      <trkpt lat="43.98069" lon="5.71714">
        <ele>665</ele>
        <time>2020-02-13T09:03:24Z</time>
      </trkpt>
      <trkpt lat="43.98051" lon="5.71706">
        <ele>671</ele>
        <time>2020-02-13T09:04:05Z</time>
      </trkpt>
      <trkpt lat="43.98043" lon="5.71704">
        <ele>673</ele>
        <time>2020-02-13T09:04:16Z</time>
      </trkpt>
      <trkpt lat="43.98037" lon="5.71701">
        <ele>675</ele>
        <time>2020-02-13T09:04:25Z</time>
      </trkpt>
      <trkpt lat="43.98031" lon="5.71698">
        <ele>677</ele>
        <time>2020-02-13T09:04:37Z</time>
      </trkpt>
      <trkpt lat="43.98025" lon="5.71697">
        <ele>679</ele>
        <time>2020-02-13T09:04:49Z</time>
      </trkpt>
      <trkpt lat="43.98021" lon="5.71695">
        <ele>679</ele>
        <time>2020-02-13T09:04:55Z</time>
      </trkpt>
      <trkpt lat="43.98014" lon="5.7169">
        <ele>681</ele>
        <time>2020-02-13T09:05:07Z</time>
      </trkpt>
      <trkpt lat="43.9801" lon="5.71687">
        <ele>682</ele>
        <time>2020-02-13T09:05:12Z</time>
      </trkpt>
      <trkpt lat="43.98001" lon="5.71685">
        <ele>683</ele>
        <time>2020-02-13T09:05:24Z</time>
      </trkpt>
      <trkpt lat="43.97994" lon="5.7168">
        <ele>684</ele>
        <time>2020-02-13T09:05:33Z</time>
      </trkpt>
      <trkpt lat="43.97984" lon="5.71672">
        <ele>687</ele>
        <time>2020-02-13T09:07:13Z</time>
      </trkpt>
      <trkpt lat="43.9798" lon="5.71671">
        <ele>687</ele>
        <time>2020-02-13T09:07:18Z</time>
      </trkpt>
      <trkpt lat="43.97974" lon="5.71669">
        <ele>688</ele>
        <time>2020-02-13T09:07:25Z</time>
      </trkpt>
      <trkpt lat="43.97969" lon="5.71668">
        <ele>689</ele>
        <time>2020-02-13T09:07:34Z</time>
      </trkpt>
      <trkpt lat="43.97964" lon="5.71669">
        <ele>689</ele>
        <time>2020-02-13T09:07:38Z</time>
      </trkpt>
      <trkpt lat="43.97936" lon="5.7166">
        <ele>696</ele>
        <time>2020-02-13T09:08:19Z</time>
      </trkpt>
      <trkpt lat="43.97931" lon="5.71659">
        <ele>697</ele>
        <time>2020-02-13T09:08:25Z</time>
      </trkpt>
      <trkpt lat="43.97919" lon="5.71647">
        <ele>700</ele>
        <time>2020-02-13T09:08:47Z</time>
      </trkpt>
      <trkpt lat="43.97915" lon="5.7164">
        <ele>702</ele>
        <time>2020-02-13T09:08:59Z</time>
      </trkpt>
      <trkpt lat="43.97897" lon="5.71617">
        <ele>709</ele>
        <time>2020-02-13T09:09:38Z</time>
      </trkpt>
      <trkpt lat="43.97888" lon="5.71603">
        <ele>714</ele>
        <time>2020-02-13T09:10:02Z</time>
      </trkpt>
      <trkpt lat="43.97884" lon="5.71599">
        <ele>715</ele>
        <time>2020-02-13T09:10:08Z</time>
      </trkpt>
      <trkpt lat="43.97877" lon="5.71585">
        <ele>718</ele>
        <time>2020-02-13T09:10:26Z</time>
      </trkpt>
      <trkpt lat="43.9787" lon="5.71579">
        <ele>719</ele>
        <time>2020-02-13T09:10:38Z</time>
      </trkpt>
      <trkpt lat="43.97863" lon="5.71572">
        <ele>720</ele>
        <time>2020-02-13T09:10:50Z</time>
      </trkpt>
      <trkpt lat="43.97861" lon="5.71565">
        <ele>721</ele>
        <time>2020-02-13T09:10:57Z</time>
      </trkpt>
      <trkpt lat="43.97858" lon="5.7155">
        <ele>724</ele>
        <time>2020-02-13T09:11:11Z</time>
      </trkpt>
      <trkpt lat="43.97859" lon="5.71541">
        <ele>726</ele>
        <time>2020-02-13T09:11:24Z</time>
      </trkpt>
      <trkpt lat="43.97855" lon="5.71536">
        <ele>727</ele>
        <time>2020-02-13T09:11:30Z</time>
      </trkpt>
      <trkpt lat="43.97854" lon="5.71529">
        <ele>727</ele>
        <time>2020-02-13T09:11:34Z</time>
      </trkpt>
      <trkpt lat="43.97853" lon="5.71521">
        <ele>728</ele>
        <time>2020-02-13T09:11:42Z</time>
      </trkpt>
      <trkpt lat="43.97852" lon="5.71514">
        <ele>729</ele>
        <time>2020-02-13T09:11:48Z</time>
      </trkpt>
      <trkpt lat="43.97838" lon="5.71492">
        <ele>731</ele>
        <time>2020-02-13T09:12:14Z</time>
      </trkpt>
      <trkpt lat="43.97832" lon="5.71482">
        <ele>731</ele>
        <time>2020-02-13T09:12:24Z</time>
      </trkpt>
      <trkpt lat="43.97828" lon="5.71475">
        <ele>731</ele>
        <time>2020-02-13T09:12:32Z</time>
      </trkpt>
      <trkpt lat="43.97826" lon="5.71469">
        <ele>732</ele>
        <time>2020-02-13T09:12:51Z</time>
      </trkpt>
      <trkpt lat="43.97822" lon="5.71467">
        <ele>741</ele>
        <time>2020-02-13T09:29:17Z</time>
      </trkpt>
      <trkpt lat="43.97814" lon="5.7146">
        <ele>741</ele>
        <time>2020-02-13T09:29:29Z</time>
      </trkpt>
      <trkpt lat="43.97806" lon="5.71456">
        <ele>741</ele>
        <time>2020-02-13T09:29:38Z</time>
      </trkpt>
      <trkpt lat="43.97801" lon="5.71454">
        <ele>741</ele>
        <time>2020-02-13T09:29:45Z</time>
      </trkpt>
      <trkpt lat="43.97793" lon="5.71453">
        <ele>741</ele>
        <time>2020-02-13T09:29:56Z</time>
      </trkpt>
      <trkpt lat="43.97788" lon="5.71448">
        <ele>741</ele>
        <time>2020-02-13T09:30:03Z</time>
      </trkpt>
      <trkpt lat="43.97784" lon="5.71446">
        <ele>741</ele>
        <time>2020-02-13T09:30:08Z</time>
      </trkpt>
      <trkpt lat="43.9778" lon="5.71444">
        <ele>741</ele>
        <time>2020-02-13T09:30:16Z</time>
      </trkpt>
      <trkpt lat="43.97772" lon="5.71444">
        <ele>741</ele>
        <time>2020-02-13T09:30:27Z</time>
      </trkpt>
      <trkpt lat="43.97766" lon="5.71435">
        <ele>741</ele>
        <time>2020-02-13T09:30:39Z</time>
      </trkpt>
      <trkpt lat="43.97759" lon="5.7143">
        <ele>742</ele>
        <time>2020-02-13T09:30:51Z</time>
      </trkpt>
      <trkpt lat="43.97754" lon="5.71429">
        <ele>742</ele>
        <time>2020-02-13T09:31:01Z</time>
      </trkpt>
      <trkpt lat="43.97749" lon="5.71428">
        <ele>741</ele>
        <time>2020-02-13T09:31:06Z</time>
      </trkpt>
      <trkpt lat="43.97745" lon="5.71418">
        <ele>742</ele>
        <time>2020-02-13T09:31:16Z</time>
      </trkpt>
      <trkpt lat="43.9774" lon="5.71411">
        <ele>743</ele>
        <time>2020-02-13T09:31:25Z</time>
      </trkpt>
      <trkpt lat="43.97735" lon="5.71397">
        <ele>744</ele>
        <time>2020-02-13T09:31:39Z</time>
      </trkpt>
      <trkpt lat="43.97731" lon="5.71389">
        <ele>744</ele>
        <time>2020-02-13T09:31:47Z</time>
      </trkpt>
      <trkpt lat="43.97723" lon="5.71388">
        <ele>744</ele>
        <time>2020-02-13T09:31:57Z</time>
      </trkpt>
      <trkpt lat="43.97719" lon="5.71386">
        <ele>744</ele>
        <time>2020-02-13T09:32:01Z</time>
      </trkpt>
      <trkpt lat="43.97715" lon="5.7138">
        <ele>744</ele>
        <time>2020-02-13T09:32:06Z</time>
      </trkpt>
      <trkpt lat="43.97711" lon="5.71377">
        <ele>745</ele>
        <time>2020-02-13T09:32:10Z</time>
      </trkpt>
      <trkpt lat="43.97706" lon="5.71375">
        <ele>745</ele>
        <time>2020-02-13T09:32:17Z</time>
      </trkpt>
      <trkpt lat="43.97702" lon="5.71377">
        <ele>744</ele>
        <time>2020-02-13T09:32:23Z</time>
      </trkpt>
      <trkpt lat="43.97693" lon="5.7138">
        <ele>744</ele>
        <time>2020-02-13T09:32:33Z</time>
      </trkpt>
      <trkpt lat="43.97687" lon="5.71381">
        <ele>743</ele>
        <time>2020-02-13T09:32:40Z</time>
      </trkpt>
      <trkpt lat="43.9768" lon="5.71377">
        <ele>743</ele>
        <time>2020-02-13T09:32:47Z</time>
      </trkpt>
      <trkpt lat="43.97674" lon="5.71376">
        <ele>743</ele>
        <time>2020-02-13T09:32:57Z</time>
      </trkpt>
      <trkpt lat="43.9767" lon="5.71372">
        <ele>742</ele>
        <time>2020-02-13T09:33:03Z</time>
      </trkpt>
      <trkpt lat="43.9766" lon="5.71367">
        <ele>742</ele>
        <time>2020-02-13T09:33:13Z</time>
      </trkpt>
      <trkpt lat="43.97655" lon="5.71365">
        <ele>742</ele>
        <time>2020-02-13T09:33:20Z</time>
      </trkpt>
      <trkpt lat="43.97648" lon="5.71361">
        <ele>742</ele>
        <time>2020-02-13T09:33:28Z</time>
      </trkpt>
      <trkpt lat="43.97639" lon="5.7136">
        <ele>742</ele>
        <time>2020-02-13T09:33:37Z</time>
      </trkpt>
      <trkpt lat="43.97623" lon="5.71351">
        <ele>742</ele>
        <time>2020-02-13T09:33:56Z</time>
      </trkpt>
      <trkpt lat="43.97617" lon="5.71353">
        <ele>741</ele>
        <time>2020-02-13T09:34:03Z</time>
      </trkpt>
      <trkpt lat="43.97602" lon="5.71353">
        <ele>739</ele>
        <time>2020-02-13T09:34:17Z</time>
      </trkpt>
      <trkpt lat="43.97592" lon="5.71356">
        <ele>739</ele>
        <time>2020-02-13T09:34:26Z</time>
      </trkpt>
      <trkpt lat="43.97582" lon="5.71356">
        <ele>737</ele>
        <time>2020-02-13T09:34:38Z</time>
      </trkpt>
      <trkpt lat="43.97576" lon="5.71358">
        <ele>737</ele>
        <time>2020-02-13T09:34:43Z</time>
      </trkpt>
      <trkpt lat="43.97567" lon="5.71355">
        <ele>736</ele>
        <time>2020-02-13T09:34:52Z</time>
      </trkpt>
      <trkpt lat="43.97562" lon="5.71351">
        <ele>737</ele>
        <time>2020-02-13T09:35:33Z</time>
      </trkpt>
      <trkpt lat="43.97558" lon="5.71353">
        <ele>737</ele>
        <time>2020-02-13T09:35:38Z</time>
      </trkpt>
      <trkpt lat="43.97549" lon="5.71352">
        <ele>736</ele>
        <time>2020-02-13T09:35:48Z</time>
      </trkpt>
      <trkpt lat="43.97545" lon="5.7135">
        <ele>736</ele>
        <time>2020-02-13T09:35:53Z</time>
      </trkpt>
      <trkpt lat="43.97515" lon="5.71343">
        <ele>735</ele>
        <time>2020-02-13T09:36:26Z</time>
      </trkpt>
      <trkpt lat="43.97511" lon="5.71344">
        <ele>734</ele>
        <time>2020-02-13T09:36:32Z</time>
      </trkpt>
      <trkpt lat="43.97507" lon="5.71342">
        <ele>734</ele>
        <time>2020-02-13T09:36:36Z</time>
      </trkpt>
      <trkpt lat="43.97499" lon="5.71341">
        <ele>734</ele>
        <time>2020-02-13T09:36:46Z</time>
      </trkpt>
      <trkpt lat="43.97481" lon="5.71332">
        <ele>733</ele>
        <time>2020-02-13T09:37:07Z</time>
      </trkpt>
      <trkpt lat="43.97468" lon="5.71332">
        <ele>733</ele>
        <time>2020-02-13T09:37:21Z</time>
      </trkpt>
      <trkpt lat="43.97444" lon="5.71325">
        <ele>732</ele>
        <time>2020-02-13T09:37:58Z</time>
      </trkpt>
      <trkpt lat="43.97442" lon="5.71336">
        <ele>729</ele>
        <time>2020-02-13T09:38:22Z</time>
      </trkpt>
      <trkpt lat="43.97453" lon="5.71355">
        <ele>726</ele>
        <time>2020-02-13T09:38:47Z</time>
      </trkpt>
      <trkpt lat="43.97476" lon="5.71378">
        <ele>722</ele>
        <time>2020-02-13T09:39:21Z</time>
      </trkpt>
      <trkpt lat="43.97491" lon="5.71398">
        <ele>718</ele>
        <time>2020-02-13T09:39:49Z</time>
      </trkpt>
      <trkpt lat="43.97497" lon="5.71401">
        <ele>717</ele>
        <time>2020-02-13T09:39:55Z</time>
      </trkpt>
      <trkpt lat="43.97508" lon="5.71418">
        <ele>716</ele>
        <time>2020-02-13T09:40:16Z</time>
      </trkpt>
      <trkpt lat="43.97518" lon="5.71441">
        <ele>712</ele>
        <time>2020-02-13T09:40:46Z</time>
      </trkpt>
      <trkpt lat="43.97536" lon="5.71464">
        <ele>708</ele>
        <time>2020-02-13T09:41:18Z</time>
      </trkpt>
      <trkpt lat="43.97542" lon="5.71471">
        <ele>707</ele>
        <time>2020-02-13T09:41:31Z</time>
      </trkpt>
      <trkpt lat="43.97554" lon="5.71505">
        <ele>702</ele>
        <time>2020-02-13T09:42:01Z</time>
      </trkpt>
      <trkpt lat="43.97568" lon="5.71532">
        <ele>697</ele>
        <time>2020-02-13T09:42:32Z</time>
      </trkpt>
      <trkpt lat="43.97581" lon="5.71568">
        <ele>691</ele>
        <time>2020-02-13T09:43:09Z</time>
      </trkpt>
      <trkpt lat="43.97587" lon="5.71595">
        <ele>686</ele>
        <time>2020-02-13T09:43:35Z</time>
      </trkpt>
      <trkpt lat="43.9759" lon="5.71601">
        <ele>686</ele>
        <time>2020-02-13T09:43:40Z</time>
      </trkpt>
      <trkpt lat="43.97611" lon="5.71622">
        <ele>681</ele>
        <time>2020-02-13T09:44:13Z</time>
      </trkpt>
      <trkpt lat="43.97615" lon="5.71628">
        <ele>680</ele>
        <time>2020-02-13T09:44:19Z</time>
      </trkpt>
      <trkpt lat="43.97619" lon="5.71633">
        <ele>680</ele>
        <time>2020-02-13T09:44:38Z</time>
      </trkpt>
      <trkpt lat="43.97625" lon="5.7164">
        <ele>678</ele>
        <time>2020-02-13T09:44:56Z</time>
      </trkpt>
      <trkpt lat="43.97636" lon="5.71665">
        <ele>674</ele>
        <time>2020-02-13T09:45:20Z</time>
      </trkpt>
      <trkpt lat="43.97647" lon="5.71677">
        <ele>671</ele>
        <time>2020-02-13T09:45:40Z</time>
      </trkpt>
      <trkpt lat="43.97649" lon="5.71683">
        <ele>670</ele>
        <time>2020-02-13T09:45:46Z</time>
      </trkpt>
      <trkpt lat="43.97657" lon="5.7169">
        <ele>668</ele>
        <time>2020-02-13T09:45:57Z</time>
      </trkpt>
      <trkpt lat="43.9766" lon="5.71697">
        <ele>667</ele>
        <time>2020-02-13T09:46:04Z</time>
      </trkpt>
      <trkpt lat="43.97667" lon="5.71704">
        <ele>666</ele>
        <time>2020-02-13T09:46:14Z</time>
      </trkpt>
      <trkpt lat="43.97671" lon="5.71709">
        <ele>664</ele>
        <time>2020-02-13T09:46:22Z</time>
      </trkpt>
      <trkpt lat="43.97683" lon="5.71728">
        <ele>660</ele>
        <time>2020-02-13T09:46:45Z</time>
      </trkpt>
      <trkpt lat="43.97688" lon="5.71733">
        <ele>659</ele>
        <time>2020-02-13T09:46:55Z</time>
      </trkpt>
      <trkpt lat="43.97698" lon="5.71747">
        <ele>657</ele>
        <time>2020-02-13T09:47:13Z</time>
      </trkpt>
      <trkpt lat="43.97705" lon="5.71753">
        <ele>655</ele>
        <time>2020-02-13T09:47:25Z</time>
      </trkpt>
      <trkpt lat="43.97708" lon="5.71758">
        <ele>654</ele>
        <time>2020-02-13T09:47:30Z</time>
      </trkpt>
      <trkpt lat="43.97711" lon="5.71764">
        <ele>653</ele>
        <time>2020-02-13T09:47:39Z</time>
      </trkpt>
      <trkpt lat="43.97727" lon="5.71782">
        <ele>650</ele>
        <time>2020-02-13T09:48:02Z</time>
      </trkpt>
      <trkpt lat="43.97732" lon="5.71785">
        <ele>649</ele>
        <time>2020-02-13T09:48:10Z</time>
      </trkpt>
      <trkpt lat="43.97745" lon="5.71802">
        <ele>647</ele>
        <time>2020-02-13T09:48:30Z</time>
      </trkpt>
      <trkpt lat="43.97748" lon="5.71808">
        <ele>646</ele>
        <time>2020-02-13T09:48:34Z</time>
      </trkpt>
      <trkpt lat="43.9777" lon="5.71842">
        <ele>643</ele>
        <time>2020-02-13T09:49:10Z</time>
      </trkpt>
      <trkpt lat="43.97774" lon="5.71848">
        <ele>642</ele>
        <time>2020-02-13T09:49:15Z</time>
      </trkpt>
      <trkpt lat="43.97779" lon="5.71856">
        <ele>640</ele>
        <time>2020-02-13T09:49:25Z</time>
      </trkpt>
      <trkpt lat="43.97783" lon="5.71863">
        <ele>639</ele>
        <time>2020-02-13T09:49:32Z</time>
      </trkpt>
      <trkpt lat="43.978" lon="5.71894">
        <ele>635</ele>
        <time>2020-02-13T09:50:03Z</time>
      </trkpt>
      <trkpt lat="43.97819" lon="5.71925">
        <ele>630</ele>
        <time>2020-02-13T09:50:41Z</time>
      </trkpt>
      <trkpt lat="43.97823" lon="5.71929">
        <ele>630</ele>
        <time>2020-02-13T09:50:46Z</time>
      </trkpt>
      <trkpt lat="43.97826" lon="5.71934">
        <ele>629</ele>
        <time>2020-02-13T09:50:51Z</time>
      </trkpt>
      <trkpt lat="43.97837" lon="5.71944">
        <ele>626</ele>
        <time>2020-02-13T09:51:06Z</time>
      </trkpt>
      <trkpt lat="43.9784" lon="5.71956">
        <ele>624</ele>
        <time>2020-02-13T09:51:18Z</time>
      </trkpt>
      <trkpt lat="43.9784" lon="5.71962">
        <ele>624</ele>
        <time>2020-02-13T09:53:24Z</time>
      </trkpt>
      <trkpt lat="43.97837" lon="5.71969">
        <ele>623</ele>
        <time>2020-02-13T09:54:05Z</time>
      </trkpt>
      <trkpt lat="43.9783" lon="5.72005">
        <ele>620</ele>
        <time>2020-02-13T09:54:42Z</time>
      </trkpt>
      <trkpt lat="43.97832" lon="5.72011">
        <ele>619</ele>
        <time>2020-02-13T09:54:47Z</time>
      </trkpt>
      <trkpt lat="43.97836" lon="5.72018">
        <ele>618</ele>
        <time>2020-02-13T09:54:55Z</time>
      </trkpt>
      <trkpt lat="43.97836" lon="5.72026">
        <ele>617</ele>
        <time>2020-02-13T09:55:03Z</time>
      </trkpt>
      <trkpt lat="43.97838" lon="5.72044">
        <ele>616</ele>
        <time>2020-02-13T09:55:16Z</time>
      </trkpt>
      <trkpt lat="43.97841" lon="5.72051">
        <ele>616</ele>
        <time>2020-02-13T09:55:25Z</time>
      </trkpt>
      <trkpt lat="43.97838" lon="5.72063">
        <ele>615</ele>
        <time>2020-02-13T09:55:36Z</time>
      </trkpt>
      <trkpt lat="43.97835" lon="5.72068">
        <ele>614</ele>
        <time>2020-02-13T09:56:07Z</time>
      </trkpt>
      <trkpt lat="43.97833" lon="5.72076">
        <ele>614</ele>
        <time>2020-02-13T09:56:42Z</time>
      </trkpt>
      <trkpt lat="43.97828" lon="5.72084">
        <ele>613</ele>
        <time>2020-02-13T09:56:54Z</time>
      </trkpt>
      <trkpt lat="43.97825" lon="5.7209">
        <ele>613</ele>
        <time>2020-02-13T09:56:58Z</time>
      </trkpt>
      <trkpt lat="43.97821" lon="5.72093">
        <ele>612</ele>
        <time>2020-02-13T09:57:03Z</time>
      </trkpt>
      <trkpt lat="43.97821" lon="5.721">
        <ele>611</ele>
        <time>2020-02-13T09:57:12Z</time>
      </trkpt>
      <trkpt lat="43.97816" lon="5.72123">
        <ele>607</ele>
        <time>2020-02-13T09:57:36Z</time>
      </trkpt>
      <trkpt lat="43.97813" lon="5.72133">
        <ele>605</ele>
        <time>2020-02-13T09:57:48Z</time>
      </trkpt>
      <trkpt lat="43.97814" lon="5.7214">
        <ele>604</ele>
        <time>2020-02-13T09:57:53Z</time>
      </trkpt>
      <trkpt lat="43.97802" lon="5.72169">
        <ele>600</ele>
        <time>2020-02-13T09:58:20Z</time>
      </trkpt>
      <trkpt lat="43.97801" lon="5.72177">
        <ele>599</ele>
        <time>2020-02-13T09:58:29Z</time>
      </trkpt>
      <trkpt lat="43.97799" lon="5.72188">
        <ele>597</ele>
        <time>2020-02-13T09:58:41Z</time>
      </trkpt>
      <trkpt lat="43.97799" lon="5.72195">
        <ele>595</ele>
        <time>2020-02-13T09:58:46Z</time>
      </trkpt>
      <trkpt lat="43.97797" lon="5.72204">
        <ele>594</ele>
        <time>2020-02-13T09:58:54Z</time>
      </trkpt>
      <trkpt lat="43.97796" lon="5.72211">
        <ele>592</ele>
        <time>2020-02-13T09:58:59Z</time>
      </trkpt>
      <trkpt lat="43.97788" lon="5.72224">
        <ele>590</ele>
        <time>2020-02-13T09:59:12Z</time>
      </trkpt>
      <trkpt lat="43.97775" lon="5.72232">
        <ele>589</ele>
        <time>2020-02-13T09:59:23Z</time>
      </trkpt>
      <trkpt lat="43.97766" lon="5.72235">
        <ele>588</ele>
        <time>2020-02-13T09:59:36Z</time>
      </trkpt>
      <trkpt lat="43.97761" lon="5.72237">
        <ele>588</ele>
        <time>2020-02-13T09:59:40Z</time>
      </trkpt>
      <trkpt lat="43.97756" lon="5.72244">
        <ele>585</ele>
        <time>2020-02-13T09:59:53Z</time>
      </trkpt>
      <trkpt lat="43.97764" lon="5.72249">
        <ele>582</ele>
        <time>2020-02-13T10:00:05Z</time>
      </trkpt>
      <trkpt lat="43.97766" lon="5.72254">
        <ele>581</ele>
        <time>2020-02-13T10:00:12Z</time>
      </trkpt>
      <trkpt lat="43.97771" lon="5.72264">
        <ele>579</ele>
        <time>2020-02-13T10:00:23Z</time>
      </trkpt>
      <trkpt lat="43.97779" lon="5.72271">
        <ele>577</ele>
        <time>2020-02-13T10:00:36Z</time>
      </trkpt>
      <trkpt lat="43.97784" lon="5.72272">
        <ele>576</ele>
        <time>2020-02-13T10:00:42Z</time>
      </trkpt>
      <trkpt lat="43.97789" lon="5.72276">
        <ele>576</ele>
        <time>2020-02-13T10:00:49Z</time>
      </trkpt>
      <trkpt lat="43.97793" lon="5.72278">
        <ele>575</ele>
        <time>2020-02-13T10:00:54Z</time>
      </trkpt>
      <trkpt lat="43.97799" lon="5.72282">
        <ele>573</ele>
        <time>2020-02-13T10:01:08Z</time>
      </trkpt>
      <trkpt lat="43.97799" lon="5.72289">
        <ele>572</ele>
        <time>2020-02-13T10:01:14Z</time>
      </trkpt>
      <trkpt lat="43.97786" lon="5.72327">
        <ele>565</ele>
        <time>2020-02-13T10:01:51Z</time>
      </trkpt>
      <trkpt lat="43.97784" lon="5.72334">
        <ele>563</ele>
        <time>2020-02-13T10:01:59Z</time>
      </trkpt>
      <trkpt lat="43.97777" lon="5.72347">
        <ele>562</ele>
        <time>2020-02-13T10:02:11Z</time>
      </trkpt>
      <trkpt lat="43.97775" lon="5.72355">
        <ele>560</ele>
        <time>2020-02-13T10:02:22Z</time>
      </trkpt>
      <trkpt lat="43.97769" lon="5.72371">
        <ele>557</ele>
        <time>2020-02-13T10:02:40Z</time>
      </trkpt>
      <trkpt lat="43.97765" lon="5.72377">
        <ele>556</ele>
        <time>2020-02-13T10:02:58Z</time>
      </trkpt>
      <trkpt lat="43.97757" lon="5.72376">
        <ele>558</ele>
        <time>2020-02-13T10:04:21Z</time>
      </trkpt>
      <trkpt lat="43.97732" lon="5.72354">
        <ele>561</ele>
        <time>2020-02-13T10:04:56Z</time>
      </trkpt>
      <trkpt lat="43.97702" lon="5.72331">
        <ele>565</ele>
        <time>2020-02-13T10:05:32Z</time>
      </trkpt>
      <trkpt lat="43.97698" lon="5.72326">
        <ele>565</ele>
        <time>2020-02-13T10:05:36Z</time>
      </trkpt>
      <trkpt lat="43.97677" lon="5.72316">
        <ele>567</ele>
        <time>2020-02-13T10:06:03Z</time>
      </trkpt>
      <trkpt lat="43.97674" lon="5.72312">
        <ele>567</ele>
        <time>2020-02-13T10:06:08Z</time>
      </trkpt>
      <trkpt lat="43.97668" lon="5.7231">
        <ele>568</ele>
        <time>2020-02-13T10:06:15Z</time>
      </trkpt>
      <trkpt lat="43.97642" lon="5.72288">
        <ele>570</ele>
        <time>2020-02-13T10:06:48Z</time>
      </trkpt>
      <trkpt lat="43.97638" lon="5.72285">
        <ele>570</ele>
        <time>2020-02-13T10:06:52Z</time>
      </trkpt>
      <trkpt lat="43.97609" lon="5.72264">
        <ele>573</ele>
        <time>2020-02-13T10:07:26Z</time>
      </trkpt>
      <trkpt lat="43.976" lon="5.72251">
        <ele>574</ele>
        <time>2020-02-13T10:07:37Z</time>
      </trkpt>
      <trkpt lat="43.97598" lon="5.72244">
        <ele>575</ele>
        <time>2020-02-13T10:07:45Z</time>
      </trkpt>
      <trkpt lat="43.97588" lon="5.72234">
        <ele>577</ele>
        <time>2020-02-13T10:07:59Z</time>
      </trkpt>
      <trkpt lat="43.97585" lon="5.72229">
        <ele>577</ele>
        <time>2020-02-13T10:08:03Z</time>
      </trkpt>
      <trkpt lat="43.97584" lon="5.72223">
        <ele>578</ele>
        <time>2020-02-13T10:08:07Z</time>
      </trkpt>
      <trkpt lat="43.97564" lon="5.72187">
        <ele>582</ele>
        <time>2020-02-13T10:08:45Z</time>
      </trkpt>
      <trkpt lat="43.9756" lon="5.72175">
        <ele>584</ele>
        <time>2020-02-13T10:08:56Z</time>
      </trkpt>
      <trkpt lat="43.97553" lon="5.7214">
        <ele>587</ele>
        <time>2020-02-13T10:09:27Z</time>
      </trkpt>
      <trkpt lat="43.97551" lon="5.72134">
        <ele>588</ele>
        <time>2020-02-13T10:09:32Z</time>
      </trkpt>
      <trkpt lat="43.9755" lon="5.72119">
        <ele>590</ele>
        <time>2020-02-13T10:09:46Z</time>
      </trkpt>
      <trkpt lat="43.97548" lon="5.72112">
        <ele>591</ele>
        <time>2020-02-13T10:09:52Z</time>
      </trkpt>
      <trkpt lat="43.97543" lon="5.72105">
        <ele>591</ele>
        <time>2020-02-13T10:10:00Z</time>
      </trkpt>
      <trkpt lat="43.97539" lon="5.721">
        <ele>591</ele>
        <time>2020-02-13T10:10:06Z</time>
      </trkpt>
      <trkpt lat="43.97531" lon="5.72089">
        <ele>592</ele>
        <time>2020-02-13T10:10:19Z</time>
      </trkpt>
      <trkpt lat="43.97507" lon="5.72057">
        <ele>589</ele>
        <time>2020-02-13T10:10:51Z</time>
      </trkpt>
      <trkpt lat="43.97503" lon="5.72052">
        <ele>589</ele>
        <time>2020-02-13T10:11:12Z</time>
      </trkpt>
      <trkpt lat="43.97484" lon="5.72024">
        <ele>589</ele>
        <time>2020-02-13T10:11:44Z</time>
      </trkpt>
      <trkpt lat="43.97468" lon="5.72009">
        <ele>590</ele>
        <time>2020-02-13T10:12:03Z</time>
      </trkpt>
      <trkpt lat="43.9746" lon="5.71998">
        <ele>591</ele>
        <time>2020-02-13T10:12:10Z</time>
      </trkpt>
      <trkpt lat="43.9743" lon="5.71975">
        <ele>593</ele>
        <time>2020-02-13T10:12:42Z</time>
      </trkpt>
      <trkpt lat="43.97423" lon="5.71972">
        <ele>594</ele>
        <time>2020-02-13T10:12:49Z</time>
      </trkpt>
      <trkpt lat="43.97419" lon="5.71964">
        <ele>595</ele>
        <time>2020-02-13T10:12:56Z</time>
      </trkpt>
      <trkpt lat="43.97414" lon="5.71965">
        <ele>595</ele>
        <time>2020-02-13T10:13:03Z</time>
      </trkpt>
      <trkpt lat="43.97404" lon="5.71966">
        <ele>595</ele>
        <time>2020-02-13T10:13:33Z</time>
      </trkpt>
      <trkpt lat="43.97397" lon="5.71965">
        <ele>595</ele>
        <time>2020-02-13T10:13:42Z</time>
      </trkpt>
      <trkpt lat="43.97394" lon="5.71959">
        <ele>595</ele>
        <time>2020-02-13T10:13:50Z</time>
      </trkpt>
      <trkpt lat="43.97389" lon="5.71959">
        <ele>595</ele>
        <time>2020-02-13T10:13:56Z</time>
      </trkpt>
      <trkpt lat="43.97385" lon="5.71942">
        <ele>595</ele>
        <time>2020-02-13T10:14:36Z</time>
      </trkpt>
      <trkpt lat="43.97384" lon="5.71933">
        <ele>595</ele>
        <time>2020-02-13T10:14:43Z</time>
      </trkpt>
      <trkpt lat="43.97386" lon="5.71924">
        <ele>595</ele>
        <time>2020-02-13T10:14:52Z</time>
      </trkpt>
      <trkpt lat="43.97391" lon="5.71915">
        <ele>596</ele>
        <time>2020-02-13T10:15:05Z</time>
      </trkpt>
      <trkpt lat="43.97397" lon="5.71912">
        <ele>597</ele>
        <time>2020-02-13T10:15:23Z</time>
      </trkpt>
      <trkpt lat="43.97399" lon="5.71902">
        <ele>598</ele>
        <time>2020-02-13T10:15:49Z</time>
      </trkpt>
      <trkpt lat="43.97396" lon="5.71882">
        <ele>598</ele>
        <time>2020-02-13T10:16:08Z</time>
      </trkpt>
      <trkpt lat="43.97395" lon="5.71873">
        <ele>598</ele>
        <time>2020-02-13T10:16:16Z</time>
      </trkpt>
      <trkpt lat="43.97393" lon="5.71867">
        <ele>599</ele>
        <time>2020-02-13T10:16:24Z</time>
      </trkpt>
      <trkpt lat="43.97392" lon="5.7186">
        <ele>599</ele>
        <time>2020-02-13T10:16:30Z</time>
      </trkpt>
      <trkpt lat="43.97387" lon="5.7185">
        <ele>600</ele>
        <time>2020-02-13T10:16:41Z</time>
      </trkpt>
      <trkpt lat="43.97384" lon="5.71843">
        <ele>600</ele>
        <time>2020-02-13T10:16:49Z</time>
      </trkpt>
      <trkpt lat="43.97378" lon="5.71834">
        <ele>601</ele>
        <time>2020-02-13T10:17:01Z</time>
      </trkpt>
      <trkpt lat="43.97371" lon="5.71829">
        <ele>602</ele>
        <time>2020-02-13T10:17:12Z</time>
      </trkpt>
      <trkpt lat="43.9735" lon="5.71823">
        <ele>604</ele>
        <time>2020-02-13T10:17:43Z</time>
      </trkpt>
      <trkpt lat="43.97346" lon="5.71822">
        <ele>605</ele>
        <time>2020-02-13T10:17:49Z</time>
      </trkpt>
      <trkpt lat="43.97339" lon="5.7182">
        <ele>605</ele>
        <time>2020-02-13T10:17:57Z</time>
      </trkpt>
      <trkpt lat="43.97331" lon="5.71817">
        <ele>607</ele>
        <time>2020-02-13T10:18:08Z</time>
      </trkpt>
      <trkpt lat="43.97309" lon="5.71805">
        <ele>610</ele>
        <time>2020-02-13T10:18:35Z</time>
      </trkpt>
      <trkpt lat="43.97298" lon="5.71801">
        <ele>612</ele>
        <time>2020-02-13T10:18:50Z</time>
      </trkpt>
      <trkpt lat="43.97274" lon="5.7179">
        <ele>614</ele>
        <time>2020-02-13T10:19:19Z</time>
      </trkpt>
      <trkpt lat="43.97268" lon="5.7179">
        <ele>614</ele>
        <time>2020-02-13T10:19:23Z</time>
      </trkpt>
      <trkpt lat="43.97262" lon="5.71788">
        <ele>615</ele>
        <time>2020-02-13T10:19:29Z</time>
      </trkpt>
      <trkpt lat="43.97255" lon="5.71787">
        <ele>615</ele>
        <time>2020-02-13T10:19:37Z</time>
      </trkpt>
      <trkpt lat="43.97226" lon="5.71787">
        <ele>617</ele>
        <time>2020-02-13T10:20:06Z</time>
      </trkpt>
      <trkpt lat="43.97222" lon="5.71783">
        <ele>618</ele>
        <time>2020-02-13T10:20:11Z</time>
      </trkpt>
      <trkpt lat="43.9719" lon="5.71775">
        <ele>620</ele>
        <time>2020-02-13T10:20:44Z</time>
      </trkpt>
      <trkpt lat="43.97185" lon="5.71776">
        <ele>620</ele>
        <time>2020-02-13T10:20:49Z</time>
      </trkpt>
      <trkpt lat="43.97178" lon="5.71774">
        <ele>619</ele>
        <time>2020-02-13T10:20:56Z</time>
      </trkpt>
      <trkpt lat="43.97173" lon="5.71773">
        <ele>619</ele>
        <time>2020-02-13T10:21:00Z</time>
      </trkpt>
      <trkpt lat="43.97164" lon="5.7177">
        <ele>619</ele>
        <time>2020-02-13T10:21:09Z</time>
      </trkpt>
      <trkpt lat="43.97159" lon="5.71771">
        <ele>619</ele>
        <time>2020-02-13T10:21:15Z</time>
      </trkpt>
      <trkpt lat="43.97147" lon="5.7177">
        <ele>620</ele>
        <time>2020-02-13T10:21:25Z</time>
      </trkpt>
      <trkpt lat="43.97133" lon="5.71765">
        <ele>621</ele>
        <time>2020-02-13T10:21:40Z</time>
      </trkpt>
      <trkpt lat="43.97128" lon="5.71765">
        <ele>621</ele>
        <time>2020-02-13T10:21:47Z</time>
      </trkpt>
      <trkpt lat="43.97125" lon="5.71759">
        <ele>622</ele>
        <time>2020-02-13T10:21:53Z</time>
      </trkpt>
      <trkpt lat="43.97121" lon="5.71763">
        <ele>623</ele>
        <time>2020-02-13T10:24:16Z</time>
      </trkpt>
      <trkpt lat="43.97116" lon="5.71761">
        <ele>624</ele>
        <time>2020-02-13T10:25:29Z</time>
      </trkpt>
      <trkpt lat="43.97108" lon="5.71758">
        <ele>625</ele>
        <time>2020-02-13T10:25:39Z</time>
      </trkpt>
      <trkpt lat="43.97103" lon="5.71754">
        <ele>626</ele>
        <time>2020-02-13T10:25:45Z</time>
      </trkpt>
      <trkpt lat="43.97073" lon="5.71749">
        <ele>629</ele>
        <time>2020-02-13T10:26:18Z</time>
      </trkpt>
      <trkpt lat="43.97067" lon="5.71747">
        <ele>629</ele>
        <time>2020-02-13T10:26:25Z</time>
      </trkpt>
      <trkpt lat="43.97045" lon="5.71739">
        <ele>632</ele>
        <time>2020-02-13T10:26:51Z</time>
      </trkpt>
      <trkpt lat="43.97038" lon="5.71737">
        <ele>633</ele>
        <time>2020-02-13T10:26:58Z</time>
      </trkpt>
      <trkpt lat="43.97034" lon="5.71736">
        <ele>634</ele>
        <time>2020-02-13T10:27:06Z</time>
      </trkpt>
      <trkpt lat="43.97028" lon="5.71728">
        <ele>636</ele>
        <time>2020-02-13T10:27:17Z</time>
      </trkpt>
      <trkpt lat="43.97001" lon="5.71717">
        <ele>641</ele>
        <time>2020-02-13T10:27:58Z</time>
      </trkpt>
      <trkpt lat="43.96993" lon="5.71713">
        <ele>643</ele>
        <time>2020-02-13T10:28:10Z</time>
      </trkpt>
      <trkpt lat="43.96969" lon="5.71706">
        <ele>648</ele>
        <time>2020-02-13T10:28:42Z</time>
      </trkpt>
      <trkpt lat="43.96961" lon="5.71704">
        <ele>650</ele>
        <time>2020-02-13T10:28:54Z</time>
      </trkpt>
      <trkpt lat="43.96957" lon="5.71702">
        <ele>651</ele>
        <time>2020-02-13T10:28:59Z</time>
      </trkpt>
      <trkpt lat="43.96953" lon="5.71695">
        <ele>651</ele>
        <time>2020-02-13T10:29:06Z</time>
      </trkpt>
      <trkpt lat="43.96935" lon="5.71677">
        <ele>655</ele>
        <time>2020-02-13T10:29:35Z</time>
      </trkpt>
      <trkpt lat="43.96929" lon="5.71681">
        <ele>656</ele>
        <time>2020-02-13T10:29:46Z</time>
      </trkpt>
      <trkpt lat="43.96923" lon="5.71687">
        <ele>655</ele>
        <time>2020-02-13T10:29:53Z</time>
      </trkpt>
      <trkpt lat="43.96922" lon="5.71681">
        <ele>656</ele>
        <time>2020-02-13T10:30:43Z</time>
      </trkpt>
      <trkpt lat="43.96924" lon="5.71675">
        <ele>656</ele>
        <time>2020-02-13T10:30:57Z</time>
      </trkpt>
      <trkpt lat="43.96928" lon="5.71671">
        <ele>657</ele>
        <time>2020-02-13T10:31:15Z</time>
      </trkpt>
      <trkpt lat="43.96928" lon="5.71668">
        <ele>660</ele>
        <time>2020-02-13T10:35:13Z</time>
      </trkpt>
      <trkpt lat="43.96923" lon="5.71663">
        <ele>661</ele>
        <time>2020-02-13T10:35:26Z</time>
      </trkpt>
      <trkpt lat="43.96915" lon="5.7165">
        <ele>664</ele>
        <time>2020-02-13T10:35:43Z</time>
      </trkpt>
      <trkpt lat="43.96902" lon="5.71637">
        <ele>667</ele>
        <time>2020-02-13T10:36:11Z</time>
      </trkpt>
      <trkpt lat="43.96898" lon="5.71631">
        <ele>668</ele>
        <time>2020-02-13T10:36:18Z</time>
      </trkpt>
      <trkpt lat="43.96894" lon="5.71628">
        <ele>669</ele>
        <time>2020-02-13T10:36:26Z</time>
      </trkpt>
      <trkpt lat="43.96887" lon="5.71623">
        <ele>671</ele>
        <time>2020-02-13T10:36:38Z</time>
      </trkpt>
      <trkpt lat="43.96884" lon="5.71618">
        <ele>672</ele>
        <time>2020-02-13T10:36:46Z</time>
      </trkpt>
      <trkpt lat="43.96879" lon="5.71613">
        <ele>674</ele>
        <time>2020-02-13T10:36:58Z</time>
      </trkpt>
      <trkpt lat="43.96876" lon="5.71607">
        <ele>675</ele>
        <time>2020-02-13T10:37:16Z</time>
      </trkpt>
      <trkpt lat="43.96875" lon="5.71595">
        <ele>677</ele>
        <time>2020-02-13T10:37:40Z</time>
      </trkpt>
      <trkpt lat="43.9687" lon="5.71588">
        <ele>678</ele>
        <time>2020-02-13T10:37:52Z</time>
      </trkpt>
      <trkpt lat="43.96859" lon="5.71575">
        <ele>680</ele>
        <time>2020-02-13T10:38:11Z</time>
      </trkpt>
      <trkpt lat="43.96854" lon="5.71569">
        <ele>681</ele>
        <time>2020-02-13T10:38:19Z</time>
      </trkpt>
      <trkpt lat="43.96834" lon="5.71547">
        <ele>684</ele>
        <time>2020-02-13T10:38:50Z</time>
      </trkpt>
      <trkpt lat="43.96831" lon="5.71542">
        <ele>684</ele>
        <time>2020-02-13T10:38:54Z</time>
      </trkpt>
      <trkpt lat="43.96821" lon="5.71538">
        <ele>686</ele>
        <time>2020-02-13T10:39:08Z</time>
      </trkpt>
      <trkpt lat="43.96816" lon="5.71532">
        <ele>687</ele>
        <time>2020-02-13T10:39:16Z</time>
      </trkpt>
      <trkpt lat="43.96812" lon="5.71528">
        <ele>687</ele>
        <time>2020-02-13T10:39:24Z</time>
      </trkpt>
      <trkpt lat="43.968" lon="5.71525">
        <ele>688</ele>
        <time>2020-02-13T10:39:42Z</time>
      </trkpt>
      <trkpt lat="43.96796" lon="5.71521">
        <ele>689</ele>
        <time>2020-02-13T10:39:46Z</time>
      </trkpt>
      <trkpt lat="43.96783" lon="5.71515">
        <ele>691</ele>
        <time>2020-02-13T10:40:05Z</time>
      </trkpt>
      <trkpt lat="43.96766" lon="5.71512">
        <ele>693</ele>
        <time>2020-02-13T10:40:26Z</time>
      </trkpt>
      <trkpt lat="43.96758" lon="5.71508">
        <ele>694</ele>
        <time>2020-02-13T10:40:35Z</time>
      </trkpt>
      <trkpt lat="43.96756" lon="5.71501">
        <ele>695</ele>
        <time>2020-02-13T10:41:03Z</time>
      </trkpt>
      <trkpt lat="43.96752" lon="5.71501">
        <ele>696</ele>
        <time>2020-02-13T10:41:08Z</time>
      </trkpt>
      <trkpt lat="43.96745" lon="5.71497">
        <ele>697</ele>
        <time>2020-02-13T10:41:17Z</time>
      </trkpt>
      <trkpt lat="43.96744" lon="5.71491">
        <ele>698</ele>
        <time>2020-02-13T10:41:35Z</time>
      </trkpt>
      <trkpt lat="43.96738" lon="5.7149">
        <ele>700</ele>
        <time>2020-02-13T10:46:07Z</time>
      </trkpt>
      <trkpt lat="43.96733" lon="5.71488">
        <ele>700</ele>
        <time>2020-02-13T10:46:13Z</time>
      </trkpt>
      <trkpt lat="43.9673" lon="5.71492">
        <ele>700</ele>
        <time>2020-02-13T10:46:17Z</time>
      </trkpt>
      <trkpt lat="43.96712" lon="5.71487">
        <ele>704</ele>
        <time>2020-02-13T10:46:43Z</time>
      </trkpt>
      <trkpt lat="43.96704" lon="5.71487">
        <ele>705</ele>
        <time>2020-02-13T10:46:54Z</time>
      </trkpt>
      <trkpt lat="43.96688" lon="5.71483">
        <ele>707</ele>
        <time>2020-02-13T10:47:15Z</time>
      </trkpt>
      <trkpt lat="43.96684" lon="5.71481">
        <ele>708</ele>
        <time>2020-02-13T10:47:20Z</time>
      </trkpt>
      <trkpt lat="43.96672" lon="5.7148">
        <ele>710</ele>
        <time>2020-02-13T10:47:35Z</time>
      </trkpt>
      <trkpt lat="43.96659" lon="5.71476">
        <ele>713</ele>
        <time>2020-02-13T10:47:56Z</time>
      </trkpt>
      <trkpt lat="43.96655" lon="5.71472">
        <ele>713</ele>
        <time>2020-02-13T10:48:00Z</time>
      </trkpt>
      <trkpt lat="43.96649" lon="5.71472">
        <ele>715</ele>
        <time>2020-02-13T10:48:08Z</time>
      </trkpt>
      <trkpt lat="43.96643" lon="5.71466">
        <ele>717</ele>
        <time>2020-02-13T10:48:21Z</time>
      </trkpt>
      <trkpt lat="43.96638" lon="5.71464">
        <ele>718</ele>
        <time>2020-02-13T10:48:33Z</time>
      </trkpt>
      <trkpt lat="43.9663" lon="5.71463">
        <ele>720</ele>
        <time>2020-02-13T10:48:45Z</time>
      </trkpt>
      <trkpt lat="43.96626" lon="5.71459">
        <ele>720</ele>
        <time>2020-02-13T10:48:56Z</time>
      </trkpt>
      <trkpt lat="43.96623" lon="5.71454">
        <ele>721</ele>
        <time>2020-02-13T10:49:08Z</time>
      </trkpt>
      <trkpt lat="43.96617" lon="5.71455">
        <ele>721</ele>
        <time>2020-02-13T10:49:20Z</time>
      </trkpt>
      <trkpt lat="43.96611" lon="5.71456">
        <ele>721</ele>
        <time>2020-02-13T10:49:32Z</time>
      </trkpt>
      <trkpt lat="43.96603" lon="5.71458">
        <ele>720</ele>
        <time>2020-02-13T10:49:46Z</time>
      </trkpt>
      <trkpt lat="43.96599" lon="5.71462">
        <ele>719</ele>
        <time>2020-02-13T10:49:52Z</time>
      </trkpt>
      <trkpt lat="43.96594" lon="5.71462">
        <ele>719</ele>
        <time>2020-02-13T10:49:59Z</time>
      </trkpt>
      <trkpt lat="43.96565" lon="5.71475">
        <ele>715</ele>
        <time>2020-02-13T10:50:39Z</time>
      </trkpt>
      <trkpt lat="43.96531" lon="5.71475">
        <ele>712</ele>
        <time>2020-02-13T10:51:10Z</time>
      </trkpt>
      <trkpt lat="43.96526" lon="5.71476">
        <ele>711</ele>
        <time>2020-02-13T10:51:17Z</time>
      </trkpt>
      <trkpt lat="43.96524" lon="5.71484">
        <ele>709</ele>
        <time>2020-02-13T10:51:30Z</time>
      </trkpt>
      <trkpt lat="43.96523" lon="5.71496">
        <ele>709</ele>
        <time>2020-02-13T10:51:41Z</time>
      </trkpt>
      <trkpt lat="43.96519" lon="5.71502">
        <ele>709</ele>
        <time>2020-02-13T10:51:47Z</time>
      </trkpt>
      <trkpt lat="43.96514" lon="5.71509">
        <ele>708</ele>
        <time>2020-02-13T10:51:56Z</time>
      </trkpt>
      <trkpt lat="43.96507" lon="5.71517">
        <ele>707</ele>
        <time>2020-02-13T10:52:06Z</time>
      </trkpt>
      <trkpt lat="43.96496" lon="5.71537">
        <ele>705</ele>
        <time>2020-02-13T10:52:24Z</time>
      </trkpt>
      <trkpt lat="43.96477" lon="5.71563">
        <ele>703</ele>
        <time>2020-02-13T10:52:53Z</time>
      </trkpt>
      <trkpt lat="43.96473" lon="5.71569">
        <ele>703</ele>
        <time>2020-02-13T10:53:00Z</time>
      </trkpt>
      <trkpt lat="43.96469" lon="5.71573">
        <ele>703</ele>
        <time>2020-02-13T10:53:05Z</time>
      </trkpt>
      <trkpt lat="43.96465" lon="5.7158">
        <ele>702</ele>
        <time>2020-02-13T10:53:12Z</time>
      </trkpt>
      <trkpt lat="43.9646" lon="5.71584">
        <ele>702</ele>
        <time>2020-02-13T10:53:17Z</time>
      </trkpt>
      <trkpt lat="43.96434" lon="5.71597">
        <ele>700</ele>
        <time>2020-02-13T10:53:44Z</time>
      </trkpt>
      <trkpt lat="43.96429" lon="5.71602">
        <ele>699</ele>
        <time>2020-02-13T10:53:52Z</time>
      </trkpt>
      <trkpt lat="43.96427" lon="5.71608">
        <ele>699</ele>
        <time>2020-02-13T10:53:57Z</time>
      </trkpt>
      <trkpt lat="43.96419" lon="5.71621">
        <ele>699</ele>
        <time>2020-02-13T10:54:07Z</time>
      </trkpt>
      <trkpt lat="43.96418" lon="5.71627">
        <ele>698</ele>
        <time>2020-02-13T10:54:15Z</time>
      </trkpt>
      <trkpt lat="43.96419" lon="5.71634">
        <ele>698</ele>
        <time>2020-02-13T10:54:21Z</time>
      </trkpt>
      <trkpt lat="43.96419" lon="5.71641">
        <ele>698</ele>
        <time>2020-02-13T10:54:27Z</time>
      </trkpt>
      <trkpt lat="43.96415" lon="5.71655">
        <ele>698</ele>
        <time>2020-02-13T10:54:36Z</time>
      </trkpt>
      <trkpt lat="43.96409" lon="5.71675">
        <ele>698</ele>
        <time>2020-02-13T10:54:49Z</time>
      </trkpt>
      <trkpt lat="43.96402" lon="5.71685">
        <ele>697</ele>
        <time>2020-02-13T10:54:58Z</time>
      </trkpt>
      <trkpt lat="43.96399" lon="5.71695">
        <ele>696</ele>
        <time>2020-02-13T10:55:08Z</time>
      </trkpt>
      <trkpt lat="43.96397" lon="5.71702">
        <ele>695</ele>
        <time>2020-02-13T10:55:13Z</time>
      </trkpt>
      <trkpt lat="43.96393" lon="5.71705">
        <ele>695</ele>
        <time>2020-02-13T10:55:17Z</time>
      </trkpt>
      <trkpt lat="43.96381" lon="5.71709">
        <ele>695</ele>
        <time>2020-02-13T10:55:28Z</time>
      </trkpt>
      <trkpt lat="43.96367" lon="5.71716">
        <ele>694</ele>
        <time>2020-02-13T10:55:42Z</time>
      </trkpt>
      <trkpt lat="43.96357" lon="5.71718">
        <ele>693</ele>
        <time>2020-02-13T10:55:50Z</time>
      </trkpt>
      <trkpt lat="43.96352" lon="5.71723">
        <ele>692</ele>
        <time>2020-02-13T10:55:57Z</time>
      </trkpt>
      <trkpt lat="43.96344" lon="5.71731">
        <ele>691</ele>
        <time>2020-02-13T10:56:07Z</time>
      </trkpt>
      <trkpt lat="43.96333" lon="5.71734">
        <ele>691</ele>
        <time>2020-02-13T10:56:15Z</time>
      </trkpt>
      <trkpt lat="43.96329" lon="5.71732">
        <ele>690</ele>
        <time>2020-02-13T10:56:19Z</time>
      </trkpt>
      <trkpt lat="43.96323" lon="5.71733">
        <ele>690</ele>
        <time>2020-02-13T10:56:25Z</time>
      </trkpt>
      <trkpt lat="43.96312" lon="5.71745">
        <ele>687</ele>
        <time>2020-02-13T10:56:45Z</time>
      </trkpt>
      <trkpt lat="43.963" lon="5.71781">
        <ele>684</ele>
        <time>2020-02-13T10:57:12Z</time>
      </trkpt>
      <trkpt lat="43.96297" lon="5.71786">
        <ele>684</ele>
        <time>2020-02-13T10:57:25Z</time>
      </trkpt>
      <trkpt lat="43.96292" lon="5.71791">
        <ele>685</ele>
        <time>2020-02-13T10:59:35Z</time>
      </trkpt>
      <trkpt lat="43.96289" lon="5.71802">
        <ele>685</ele>
        <time>2020-02-13T11:00:48Z</time>
      </trkpt>
      <trkpt lat="43.96284" lon="5.71802">
        <ele>685</ele>
        <time>2020-02-13T11:00:52Z</time>
      </trkpt>
      <trkpt lat="43.96279" lon="5.71799">
        <ele>685</ele>
        <time>2020-02-13T11:01:03Z</time>
      </trkpt>
      <trkpt lat="43.96279" lon="5.71798">
        <ele>695</ele>
        <time>2020-02-13T11:16:39Z</time>
      </trkpt>
      <trkpt lat="43.9628" lon="5.71798">
        <ele>698</ele>
        <time>2020-02-13T11:22:45Z</time>
      </trkpt>
      <trkpt lat="43.96279" lon="5.71797">
        <ele>708</ele>
        <time>2020-02-13T11:36:46Z</time>
      </trkpt>
      <trkpt lat="43.9628" lon="5.71791">
        <ele>712</ele>
        <time>2020-02-13T11:39:41Z</time>
      </trkpt>
      <trkpt lat="43.96276" lon="5.71793">
        <ele>712</ele>
        <time>2020-02-13T11:40:29Z</time>
      </trkpt>
      <trkpt lat="43.96277" lon="5.71792">
        <ele>713</ele>
        <time>2020-02-13T11:42:00Z</time>
      </trkpt>
      <trkpt lat="43.96279" lon="5.7179">
        <ele>717</ele>
        <time>2020-02-13T11:47:39Z</time>
      </trkpt>
      <trkpt lat="43.96276" lon="5.71791">
        <ele>719</ele>
        <time>2020-02-13T11:50:09Z</time>
      </trkpt>
      <trkpt lat="43.96281" lon="5.71796">
        <ele>721</ele>
        <time>2020-02-13T11:53:24Z</time>
      </trkpt>
      <trkpt lat="43.96286" lon="5.71797">
        <ele>722</ele>
        <time>2020-02-13T11:53:42Z</time>
      </trkpt>
      <trkpt lat="43.96292" lon="5.71795">
        <ele>722</ele>
        <time>2020-02-13T11:53:59Z</time>
      </trkpt>
      <trkpt lat="43.96297" lon="5.71797">
        <ele>723</ele>
        <time>2020-02-13T11:54:10Z</time>
      </trkpt>
      <trkpt lat="43.96307" lon="5.71795">
        <ele>722</ele>
        <time>2020-02-13T11:54:23Z</time>
      </trkpt>
      <trkpt lat="43.96313" lon="5.71797">
        <ele>722</ele>
        <time>2020-02-13T11:54:31Z</time>
      </trkpt>
      <trkpt lat="43.96321" lon="5.71795">
        <ele>721</ele>
        <time>2020-02-13T11:54:41Z</time>
      </trkpt>
      <trkpt lat="43.96326" lon="5.71796">
        <ele>721</ele>
        <time>2020-02-13T11:54:45Z</time>
      </trkpt>
      <trkpt lat="43.96331" lon="5.71797">
        <ele>721</ele>
        <time>2020-02-13T11:54:52Z</time>
      </trkpt>
      <trkpt lat="43.96337" lon="5.71794">
        <ele>720</ele>
        <time>2020-02-13T11:54:58Z</time>
      </trkpt>
      <trkpt lat="43.96344" lon="5.71793">
        <ele>719</ele>
        <time>2020-02-13T11:55:07Z</time>
      </trkpt>
      <trkpt lat="43.96369" lon="5.71788">
        <ele>717</ele>
        <time>2020-02-13T11:55:34Z</time>
      </trkpt>
      <trkpt lat="43.96387" lon="5.71787">
        <ele>716</ele>
        <time>2020-02-13T11:55:54Z</time>
      </trkpt>
      <trkpt lat="43.9641" lon="5.71793">
        <ele>711</ele>
        <time>2020-02-13T11:56:21Z</time>
      </trkpt>
      <trkpt lat="43.96425" lon="5.71792">
        <ele>710</ele>
        <time>2020-02-13T11:56:38Z</time>
      </trkpt>
      <trkpt lat="43.96438" lon="5.71787">
        <ele>708</ele>
        <time>2020-02-13T11:56:53Z</time>
      </trkpt>
      <trkpt lat="43.96453" lon="5.71784">
        <ele>706</ele>
        <time>2020-02-13T11:57:07Z</time>
      </trkpt>
      <trkpt lat="43.96458" lon="5.7178">
        <ele>706</ele>
        <time>2020-02-13T11:57:14Z</time>
      </trkpt>
      <trkpt lat="43.96464" lon="5.71776">
        <ele>706</ele>
        <time>2020-02-13T11:57:21Z</time>
      </trkpt>
      <trkpt lat="43.96476" lon="5.71769">
        <ele>704</ele>
        <time>2020-02-13T11:57:37Z</time>
      </trkpt>
      <trkpt lat="43.96499" lon="5.7174">
        <ele>702</ele>
        <time>2020-02-13T11:58:12Z</time>
      </trkpt>
      <trkpt lat="43.96508" lon="5.71732">
        <ele>700</ele>
        <time>2020-02-13T11:58:22Z</time>
      </trkpt>
      <trkpt lat="43.96513" lon="5.71729">
        <ele>700</ele>
        <time>2020-02-13T11:58:28Z</time>
      </trkpt>
      <trkpt lat="43.96524" lon="5.71726">
        <ele>700</ele>
        <time>2020-02-13T11:58:41Z</time>
      </trkpt>
      <trkpt lat="43.96529" lon="5.71722">
        <ele>699</ele>
        <time>2020-02-13T11:58:48Z</time>
      </trkpt>
      <trkpt lat="43.96533" lon="5.71721">
        <ele>698</ele>
        <time>2020-02-13T11:58:53Z</time>
      </trkpt>
      <trkpt lat="43.96537" lon="5.71717">
        <ele>698</ele>
        <time>2020-02-13T11:58:58Z</time>
      </trkpt>
      <trkpt lat="43.96548" lon="5.71713">
        <ele>697</ele>
        <time>2020-02-13T11:59:09Z</time>
      </trkpt>
      <trkpt lat="43.96552" lon="5.71709">
        <ele>696</ele>
        <time>2020-02-13T11:59:13Z</time>
      </trkpt>
      <trkpt lat="43.96559" lon="5.71707">
        <ele>696</ele>
        <time>2020-02-13T11:59:20Z</time>
      </trkpt>
      <trkpt lat="43.96578" lon="5.71698">
        <ele>692</ele>
        <time>2020-02-13T11:59:42Z</time>
      </trkpt>
      <trkpt lat="43.96586" lon="5.717">
        <ele>692</ele>
        <time>2020-02-13T11:59:50Z</time>
      </trkpt>
      <trkpt lat="43.9659" lon="5.71707">
        <ele>691</ele>
        <time>2020-02-13T11:59:56Z</time>
      </trkpt>
      <trkpt lat="43.96592" lon="5.71719">
        <ele>690</ele>
        <time>2020-02-13T12:00:05Z</time>
      </trkpt>
      <trkpt lat="43.96591" lon="5.71725">
        <ele>690</ele>
        <time>2020-02-13T12:00:09Z</time>
      </trkpt>
      <trkpt lat="43.96579" lon="5.71767">
        <ele>688</ele>
        <time>2020-02-13T12:00:36Z</time>
      </trkpt>
      <trkpt lat="43.96579" lon="5.71794">
        <ele>682</ele>
        <time>2020-02-13T12:01:00Z</time>
      </trkpt>
      <trkpt lat="43.96576" lon="5.71803">
        <ele>680</ele>
        <time>2020-02-13T12:01:07Z</time>
      </trkpt>
      <trkpt lat="43.96574" lon="5.71839">
        <ele>673</ele>
        <time>2020-02-13T12:01:39Z</time>
      </trkpt>
      <trkpt lat="43.96574" lon="5.71847">
        <ele>671</ele>
        <time>2020-02-13T12:01:46Z</time>
      </trkpt>
      <trkpt lat="43.96571" lon="5.71856">
        <ele>670</ele>
        <time>2020-02-13T12:01:54Z</time>
      </trkpt>
      <trkpt lat="43.96577" lon="5.71887">
        <ele>664</ele>
        <time>2020-02-13T12:02:28Z</time>
      </trkpt>
      <trkpt lat="43.96579" lon="5.71893">
        <ele>662</ele>
        <time>2020-02-13T12:02:36Z</time>
      </trkpt>
      <trkpt lat="43.9658" lon="5.719">
        <ele>661</ele>
        <time>2020-02-13T12:02:42Z</time>
      </trkpt>
      <trkpt lat="43.96582" lon="5.71906">
        <ele>660</ele>
        <time>2020-02-13T12:02:47Z</time>
      </trkpt>
      <trkpt lat="43.96584" lon="5.71914">
        <ele>658</ele>
        <time>2020-02-13T12:02:54Z</time>
      </trkpt>
      <trkpt lat="43.96584" lon="5.71963">
        <ele>650</ele>
        <time>2020-02-13T12:03:36Z</time>
      </trkpt>
      <trkpt lat="43.96581" lon="5.72">
        <ele>642</ele>
        <time>2020-02-13T12:04:13Z</time>
      </trkpt>
      <trkpt lat="43.96581" lon="5.72007">
        <ele>641</ele>
        <time>2020-02-13T12:04:19Z</time>
      </trkpt>
      <trkpt lat="43.96583" lon="5.72015">
        <ele>639</ele>
        <time>2020-02-13T12:04:27Z</time>
      </trkpt>
      <trkpt lat="43.96583" lon="5.72026">
        <ele>637</ele>
        <time>2020-02-13T12:04:39Z</time>
      </trkpt>
      <trkpt lat="43.96585" lon="5.72043">
        <ele>635</ele>
        <time>2020-02-13T12:04:54Z</time>
      </trkpt>
      <trkpt lat="43.96581" lon="5.72074">
        <ele>630</ele>
        <time>2020-02-13T12:05:26Z</time>
      </trkpt>
      <trkpt lat="43.9658" lon="5.72089">
        <ele>627</ele>
        <time>2020-02-13T12:05:40Z</time>
      </trkpt>
      <trkpt lat="43.96577" lon="5.72098">
        <ele>626</ele>
        <time>2020-02-13T12:05:49Z</time>
      </trkpt>
      <trkpt lat="43.96577" lon="5.72109">
        <ele>623</ele>
        <time>2020-02-13T12:06:01Z</time>
      </trkpt>
      <trkpt lat="43.96566" lon="5.72148">
        <ele>618</ele>
        <time>2020-02-13T12:06:37Z</time>
      </trkpt>
      <trkpt lat="43.96564" lon="5.72155">
        <ele>617</ele>
        <time>2020-02-13T12:06:42Z</time>
      </trkpt>
      <trkpt lat="43.96557" lon="5.72168">
        <ele>614</ele>
        <time>2020-02-13T12:06:56Z</time>
      </trkpt>
      <trkpt lat="43.96554" lon="5.72177">
        <ele>612</ele>
        <time>2020-02-13T12:07:05Z</time>
      </trkpt>
      <trkpt lat="43.96551" lon="5.72203">
        <ele>608</ele>
        <time>2020-02-13T12:07:30Z</time>
      </trkpt>
      <trkpt lat="43.96552" lon="5.72213">
        <ele>606</ele>
        <time>2020-02-13T12:07:43Z</time>
      </trkpt>
      <trkpt lat="43.96553" lon="5.72248">
        <ele>601</ele>
        <time>2020-02-13T12:08:18Z</time>
      </trkpt>
      <trkpt lat="43.96553" lon="5.72266">
        <ele>598</ele>
        <time>2020-02-13T12:08:39Z</time>
      </trkpt>
      <trkpt lat="43.96552" lon="5.72285">
        <ele>596</ele>
        <time>2020-02-13T12:09:03Z</time>
      </trkpt>
      <trkpt lat="43.96542" lon="5.72296">
        <ele>595</ele>
        <time>2020-02-13T12:09:23Z</time>
      </trkpt>
      <trkpt lat="43.96543" lon="5.72304">
        <ele>594</ele>
        <time>2020-02-13T12:10:05Z</time>
      </trkpt>
      <trkpt lat="43.96542" lon="5.72327">
        <ele>590</ele>
        <time>2020-02-13T12:10:29Z</time>
      </trkpt>
      <trkpt lat="43.96543" lon="5.72334">
        <ele>590</ele>
        <time>2020-02-13T12:10:35Z</time>
      </trkpt>
      <trkpt lat="43.96542" lon="5.72342">
        <ele>589</ele>
        <time>2020-02-13T12:10:42Z</time>
      </trkpt>
      <trkpt lat="43.96536" lon="5.72347">
        <ele>588</ele>
        <time>2020-02-13T12:10:51Z</time>
      </trkpt>
      <trkpt lat="43.96536" lon="5.72355">
        <ele>587</ele>
        <time>2020-02-13T12:10:59Z</time>
      </trkpt>
      <trkpt lat="43.96538" lon="5.72385">
        <ele>583</ele>
        <time>2020-02-13T12:11:23Z</time>
      </trkpt>
      <trkpt lat="43.96536" lon="5.72391">
        <ele>582</ele>
        <time>2020-02-13T12:11:27Z</time>
      </trkpt>
      <trkpt lat="43.9653" lon="5.72435">
        <ele>578</ele>
        <time>2020-02-13T12:11:59Z</time>
      </trkpt>
      <trkpt lat="43.96525" lon="5.7248">
        <ele>573</ele>
        <time>2020-02-13T12:12:30Z</time>
      </trkpt>
      <trkpt lat="43.96522" lon="5.72518">
        <ele>570</ele>
        <time>2020-02-13T12:12:56Z</time>
      </trkpt>
      <trkpt lat="43.96514" lon="5.72552">
        <ele>568</ele>
        <time>2020-02-13T12:13:19Z</time>
      </trkpt>
      <trkpt lat="43.96511" lon="5.72557">
        <ele>567</ele>
        <time>2020-02-13T12:13:23Z</time>
      </trkpt>
      <trkpt lat="43.96504" lon="5.72566">
        <ele>567</ele>
        <time>2020-02-13T12:13:29Z</time>
      </trkpt>
      <trkpt lat="43.96489" lon="5.72577">
        <ele>567</ele>
        <time>2020-02-13T12:13:40Z</time>
      </trkpt>
      <trkpt lat="43.96486" lon="5.72584">
        <ele>566</ele>
        <time>2020-02-13T12:13:48Z</time>
      </trkpt>
      <trkpt lat="43.96487" lon="5.7259">
        <ele>565</ele>
        <time>2020-02-13T12:13:54Z</time>
      </trkpt>
      <trkpt lat="43.96489" lon="5.72608">
        <ele>562</ele>
        <time>2020-02-13T12:14:07Z</time>
      </trkpt>
      <trkpt lat="43.96488" lon="5.72618">
        <ele>561</ele>
        <time>2020-02-13T12:14:15Z</time>
      </trkpt>
      <trkpt lat="43.96489" lon="5.72648">
        <ele>557</ele>
        <time>2020-02-13T12:14:35Z</time>
      </trkpt>
      <trkpt lat="43.96488" lon="5.72662">
        <ele>555</ele>
        <time>2020-02-13T12:14:45Z</time>
      </trkpt>
      <trkpt lat="43.96489" lon="5.72684">
        <ele>553</ele>
        <time>2020-02-13T12:15:00Z</time>
      </trkpt>
      <trkpt lat="43.96487" lon="5.72707">
        <ele>550</ele>
        <time>2020-02-13T12:15:18Z</time>
      </trkpt>
      <trkpt lat="43.96483" lon="5.72713">
        <ele>549</ele>
        <time>2020-02-13T12:15:30Z</time>
      </trkpt>
      <trkpt lat="43.96479" lon="5.72716">
        <ele>549</ele>
        <time>2020-02-13T12:15:36Z</time>
      </trkpt>
      <trkpt lat="43.96485" lon="5.72729">
        <ele>548</ele>
        <time>2020-02-13T12:16:03Z</time>
      </trkpt>
      <trkpt lat="43.96487" lon="5.72736">
        <ele>547</ele>
        <time>2020-02-13T12:16:10Z</time>
      </trkpt>
      <trkpt lat="43.96485" lon="5.72743">
        <ele>545</ele>
        <time>2020-02-13T12:16:30Z</time>
      </trkpt>
      <trkpt lat="43.96479" lon="5.72746">
        <ele>545</ele>
        <time>2020-02-13T12:17:08Z</time>
      </trkpt>
      <trkpt lat="43.96483" lon="5.72753">
        <ele>545</ele>
        <time>2020-02-13T12:17:21Z</time>
      </trkpt>
      <trkpt lat="43.96481" lon="5.72783">
        <ele>542</ele>
        <time>2020-02-13T12:17:54Z</time>
      </trkpt>
      <trkpt lat="43.9648" lon="5.72797">
        <ele>541</ele>
        <time>2020-02-13T12:18:07Z</time>
      </trkpt>
      <trkpt lat="43.96479" lon="5.72826">
        <ele>540</ele>
        <time>2020-02-13T12:18:49Z</time>
      </trkpt>
      <trkpt lat="43.9648" lon="5.72832">
        <ele>540</ele>
        <time>2020-02-13T12:18:54Z</time>
      </trkpt>
      <trkpt lat="43.96479" lon="5.72839">
        <ele>540</ele>
        <time>2020-02-13T12:18:58Z</time>
      </trkpt>
      <trkpt lat="43.96483" lon="5.72868">
        <ele>538</ele>
        <time>2020-02-13T12:19:22Z</time>
      </trkpt>
      <trkpt lat="43.96477" lon="5.72898">
        <ele>537</ele>
        <time>2020-02-13T12:19:39Z</time>
      </trkpt>
      <trkpt lat="43.96471" lon="5.72903">
        <ele>537</ele>
        <time>2020-02-13T12:19:44Z</time>
      </trkpt>
      <trkpt lat="43.96468" lon="5.72909">
        <ele>537</ele>
        <time>2020-02-13T12:19:49Z</time>
      </trkpt>
      <trkpt lat="43.9646" lon="5.72953">
        <ele>535</ele>
        <time>2020-02-13T12:20:21Z</time>
      </trkpt>
      <trkpt lat="43.9646" lon="5.72967">
        <ele>534</ele>
        <time>2020-02-13T12:20:31Z</time>
      </trkpt>
      <trkpt lat="43.96458" lon="5.72988">
        <ele>533</ele>
        <time>2020-02-13T12:20:46Z</time>
      </trkpt>
      <trkpt lat="43.96455" lon="5.73">
        <ele>533</ele>
        <time>2020-02-13T12:20:56Z</time>
      </trkpt>
      <trkpt lat="43.96452" lon="5.73006">
        <ele>533</ele>
        <time>2020-02-13T12:21:23Z</time>
      </trkpt>
      <trkpt lat="43.96448" lon="5.73005">
        <ele>534</ele>
        <time>2020-02-13T12:22:15Z</time>
      </trkpt>
      <trkpt lat="43.96442" lon="5.73004">
        <ele>534</ele>
        <time>2020-02-13T12:22:52Z</time>
      </trkpt>
      <trkpt lat="43.96425" lon="5.73003">
        <ele>535</ele>
        <time>2020-02-13T12:23:10Z</time>
      </trkpt>
      <trkpt lat="43.96419" lon="5.73001">
        <ele>536</ele>
        <time>2020-02-13T12:23:25Z</time>
      </trkpt>
      <trkpt lat="43.96415" lon="5.73">
        <ele>535</ele>
        <time>2020-02-13T12:23:30Z</time>
      </trkpt>
      <trkpt lat="43.9641" lon="5.73">
        <ele>535</ele>
        <time>2020-02-13T12:23:37Z</time>
      </trkpt>
      <trkpt lat="43.96403" lon="5.73001">
        <ele>535</ele>
        <time>2020-02-13T12:24:22Z</time>
      </trkpt>
      <trkpt lat="43.96398" lon="5.73">
        <ele>535</ele>
        <time>2020-02-13T12:25:14Z</time>
      </trkpt>
      <trkpt lat="43.964" lon="5.72994">
        <ele>535</ele>
        <time>2020-02-13T12:25:31Z</time>
      </trkpt>
      <trkpt lat="43.96407" lon="5.72994">
        <ele>536</ele>
        <time>2020-02-13T12:26:08Z</time>
      </trkpt>
      <trkpt lat="43.9641" lon="5.73">
        <ele>537</ele>
        <time>2020-02-13T12:26:45Z</time>
      </trkpt>
      <trkpt lat="43.96426" lon="5.72997">
        <ele>538</ele>
        <time>2020-02-13T12:27:12Z</time>
      </trkpt>
      <trkpt lat="43.96439" lon="5.73">
        <ele>537</ele>
        <time>2020-02-13T12:27:28Z</time>
      </trkpt>
      <trkpt lat="43.96444" lon="5.73004">
        <ele>537</ele>
        <time>2020-02-13T12:27:33Z</time>
      </trkpt>
      <trkpt lat="43.96447" lon="5.73014">
        <ele>537</ele>
        <time>2020-02-13T12:27:48Z</time>
      </trkpt>
      <trkpt lat="43.96446" lon="5.73021">
        <ele>536</ele>
        <time>2020-02-13T12:27:53Z</time>
      </trkpt>
      <trkpt lat="43.96443" lon="5.7303">
        <ele>536</ele>
        <time>2020-02-13T12:28:00Z</time>
      </trkpt>
      <trkpt lat="43.96442" lon="5.7304">
        <ele>535</ele>
        <time>2020-02-13T12:28:08Z</time>
      </trkpt>
      <trkpt lat="43.96444" lon="5.73047">
        <ele>534</ele>
        <time>2020-02-13T12:28:12Z</time>
      </trkpt>
      <trkpt lat="43.96445" lon="5.73061">
        <ele>533</ele>
        <time>2020-02-13T12:28:21Z</time>
      </trkpt>
      <trkpt lat="43.96447" lon="5.7307">
        <ele>532</ele>
        <time>2020-02-13T12:28:31Z</time>
      </trkpt>
      <trkpt lat="43.96453" lon="5.73079">
        <ele>532</ele>
        <time>2020-02-13T12:28:45Z</time>
      </trkpt>
      <trkpt lat="43.96449" lon="5.73085">
        <ele>532</ele>
        <time>2020-02-13T12:29:15Z</time>
      </trkpt>
      <trkpt lat="43.96446" lon="5.73078">
        <ele>533</ele>
        <time>2020-02-13T12:29:43Z</time>
      </trkpt>
      <trkpt lat="43.96441" lon="5.73044">
        <ele>535</ele>
        <time>2020-02-13T12:30:09Z</time>
      </trkpt>
      <trkpt lat="43.96443" lon="5.73036">
        <ele>536</ele>
        <time>2020-02-13T12:30:17Z</time>
      </trkpt>
      <trkpt lat="43.96441" lon="5.73031">
        <ele>537</ele>
        <time>2020-02-13T12:30:23Z</time>
      </trkpt>
      <trkpt lat="43.96445" lon="5.73024">
        <ele>538</ele>
        <time>2020-02-13T12:30:33Z</time>
      </trkpt>
      <trkpt lat="43.96446" lon="5.73018">
        <ele>538</ele>
        <time>2020-02-13T12:30:45Z</time>
      </trkpt>
      <trkpt lat="43.9645" lon="5.73006">
        <ele>539</ele>
        <time>2020-02-13T12:30:58Z</time>
      </trkpt>
      <trkpt lat="43.96456" lon="5.7297">
        <ele>540</ele>
        <time>2020-02-13T12:31:34Z</time>
      </trkpt>
      <trkpt lat="43.96457" lon="5.7296">
        <ele>541</ele>
        <time>2020-02-13T12:31:44Z</time>
      </trkpt>
      <trkpt lat="43.96461" lon="5.72946">
        <ele>542</ele>
        <time>2020-02-13T12:31:57Z</time>
      </trkpt>
      <trkpt lat="43.96469" lon="5.729">
        <ele>545</ele>
        <time>2020-02-13T12:32:35Z</time>
      </trkpt>
      <trkpt lat="43.96472" lon="5.72892">
        <ele>546</ele>
        <time>2020-02-13T12:32:43Z</time>
      </trkpt>
      <trkpt lat="43.96472" lon="5.72878">
        <ele>547</ele>
        <time>2020-02-13T12:32:55Z</time>
      </trkpt>
      <trkpt lat="43.96474" lon="5.72868">
        <ele>547</ele>
        <time>2020-02-13T12:33:04Z</time>
      </trkpt>
      <trkpt lat="43.96472" lon="5.72847">
        <ele>549</ele>
        <time>2020-02-13T12:33:21Z</time>
      </trkpt>
      <trkpt lat="43.96474" lon="5.7284">
        <ele>549</ele>
        <time>2020-02-13T12:33:24Z</time>
      </trkpt>
      <trkpt lat="43.96476" lon="5.72813">
        <ele>551</ele>
        <time>2020-02-13T12:33:46Z</time>
      </trkpt>
      <trkpt lat="43.96475" lon="5.72806">
        <ele>551</ele>
        <time>2020-02-13T12:33:52Z</time>
      </trkpt>
      <trkpt lat="43.96478" lon="5.7279">
        <ele>552</ele>
        <time>2020-02-13T12:34:04Z</time>
      </trkpt>
      <trkpt lat="43.9648" lon="5.72759">
        <ele>556</ele>
        <time>2020-02-13T12:34:29Z</time>
      </trkpt>
      <trkpt lat="43.965" lon="5.72719">
        <ele>558</ele>
        <time>2020-02-13T12:35:03Z</time>
      </trkpt>
      <trkpt lat="43.96505" lon="5.72712">
        <ele>558</ele>
        <time>2020-02-13T12:35:11Z</time>
      </trkpt>
      <trkpt lat="43.96519" lon="5.72703">
        <ele>557</ele>
        <time>2020-02-13T12:35:23Z</time>
      </trkpt>
      <trkpt lat="43.96535" lon="5.72702">
        <ele>557</ele>
        <time>2020-02-13T12:35:39Z</time>
      </trkpt>
      <trkpt lat="43.96567" lon="5.72684">
        <ele>555</ele>
        <time>2020-02-13T12:36:11Z</time>
      </trkpt>
      <trkpt lat="43.96577" lon="5.72678">
        <ele>555</ele>
        <time>2020-02-13T12:36:19Z</time>
      </trkpt>
      <trkpt lat="43.96593" lon="5.72676">
        <ele>555</ele>
        <time>2020-02-13T12:36:31Z</time>
      </trkpt>
      <trkpt lat="43.9662" lon="5.72682">
        <ele>557</ele>
        <time>2020-02-13T12:36:55Z</time>
      </trkpt>
      <trkpt lat="43.96637" lon="5.72682">
        <ele>560</ele>
        <time>2020-02-13T12:37:15Z</time>
      </trkpt>
      <trkpt lat="43.96637" lon="5.72684">
        <ele>561</ele>
        <time>2020-02-13T12:39:14Z</time>
      </trkpt>
      <trkpt lat="43.96644" lon="5.72679">
        <ele>563</ele>
        <time>2020-02-13T12:40:33Z</time>
      </trkpt>
      <trkpt lat="43.96678" lon="5.72688">
        <ele>560</ele>
        <time>2020-02-13T12:41:06Z</time>
      </trkpt>
      <trkpt lat="43.96697" lon="5.72695">
        <ele>559</ele>
        <time>2020-02-13T12:41:23Z</time>
      </trkpt>
      <trkpt lat="43.96701" lon="5.72694">
        <ele>558</ele>
        <time>2020-02-13T12:41:29Z</time>
      </trkpt>
      <trkpt lat="43.96705" lon="5.72696">
        <ele>558</ele>
        <time>2020-02-13T12:41:33Z</time>
      </trkpt>
      <trkpt lat="43.96715" lon="5.72697">
        <ele>558</ele>
        <time>2020-02-13T12:41:41Z</time>
      </trkpt>
      <trkpt lat="43.96747" lon="5.72702">
        <ele>558</ele>
        <time>2020-02-13T12:42:12Z</time>
      </trkpt>
      <trkpt lat="43.96752" lon="5.72702">
        <ele>558</ele>
        <time>2020-02-13T12:42:16Z</time>
      </trkpt>
      <trkpt lat="43.96771" lon="5.72704">
        <ele>559</ele>
        <time>2020-02-13T12:42:33Z</time>
      </trkpt>
      <trkpt lat="43.96778" lon="5.72703">
        <ele>559</ele>
        <time>2020-02-13T12:42:42Z</time>
      </trkpt>
      <trkpt lat="43.96791" lon="5.72693">
        <ele>560</ele>
        <time>2020-02-13T12:42:57Z</time>
      </trkpt>
      <trkpt lat="43.96796" lon="5.72688">
        <ele>559</ele>
        <time>2020-02-13T12:43:05Z</time>
      </trkpt>
      <trkpt lat="43.96799" lon="5.72682">
        <ele>558</ele>
        <time>2020-02-13T12:43:17Z</time>
      </trkpt>
      <trkpt lat="43.96801" lon="5.72676">
        <ele>557</ele>
        <time>2020-02-13T12:43:24Z</time>
      </trkpt>
      <trkpt lat="43.96804" lon="5.7267">
        <ele>557</ele>
        <time>2020-02-13T12:43:30Z</time>
      </trkpt>
      <trkpt lat="43.96809" lon="5.72664">
        <ele>556</ele>
        <time>2020-02-13T12:43:34Z</time>
      </trkpt>
      <trkpt lat="43.96814" lon="5.7266">
        <ele>556</ele>
        <time>2020-02-13T12:43:40Z</time>
      </trkpt>
      <trkpt lat="43.96822" lon="5.7266">
        <ele>555</ele>
        <time>2020-02-13T12:43:46Z</time>
      </trkpt>
      <trkpt lat="43.96829" lon="5.72659">
        <ele>555</ele>
        <time>2020-02-13T12:43:53Z</time>
      </trkpt>
      <trkpt lat="43.96837" lon="5.72662">
        <ele>554</ele>
        <time>2020-02-13T12:44:02Z</time>
      </trkpt>
      <trkpt lat="43.96842" lon="5.72663">
        <ele>554</ele>
        <time>2020-02-13T12:44:06Z</time>
      </trkpt>
      <trkpt lat="43.96847" lon="5.72663">
        <ele>554</ele>
        <time>2020-02-13T12:44:11Z</time>
      </trkpt>
      <trkpt lat="43.96872" lon="5.7266">
        <ele>555</ele>
        <time>2020-02-13T12:44:38Z</time>
      </trkpt>
      <trkpt lat="43.96879" lon="5.72659">
        <ele>556</ele>
        <time>2020-02-13T12:44:45Z</time>
      </trkpt>
      <trkpt lat="43.96892" lon="5.72665">
        <ele>556</ele>
        <time>2020-02-13T12:44:57Z</time>
      </trkpt>
      <trkpt lat="43.96898" lon="5.7267">
        <ele>556</ele>
        <time>2020-02-13T12:45:03Z</time>
      </trkpt>
      <trkpt lat="43.96912" lon="5.72673">
        <ele>554</ele>
        <time>2020-02-13T12:45:17Z</time>
      </trkpt>
      <trkpt lat="43.96917" lon="5.72669">
        <ele>551</ele>
        <time>2020-02-13T12:45:31Z</time>
      </trkpt>
      <trkpt lat="43.96926" lon="5.72659">
        <ele>550</ele>
        <time>2020-02-13T12:45:40Z</time>
      </trkpt>
      <trkpt lat="43.96936" lon="5.72655">
        <ele>549</ele>
        <time>2020-02-13T12:45:48Z</time>
      </trkpt>
      <trkpt lat="43.96941" lon="5.72656">
        <ele>549</ele>
        <time>2020-02-13T12:45:52Z</time>
      </trkpt>
      <trkpt lat="43.96946" lon="5.72657">
        <ele>549</ele>
        <time>2020-02-13T12:45:56Z</time>
      </trkpt>
      <trkpt lat="43.96952" lon="5.72658">
        <ele>549</ele>
        <time>2020-02-13T12:46:01Z</time>
      </trkpt>
      <trkpt lat="43.96962" lon="5.72661">
        <ele>548</ele>
        <time>2020-02-13T12:46:10Z</time>
      </trkpt>
      <trkpt lat="43.96967" lon="5.72661">
        <ele>548</ele>
        <time>2020-02-13T12:46:17Z</time>
      </trkpt>
      <trkpt lat="43.96976" lon="5.72663">
        <ele>547</ele>
        <time>2020-02-13T12:46:26Z</time>
      </trkpt>
      <trkpt lat="43.96987" lon="5.72668">
        <ele>545</ele>
        <time>2020-02-13T12:46:39Z</time>
      </trkpt>
      <trkpt lat="43.96992" lon="5.7267">
        <ele>544</ele>
        <time>2020-02-13T12:46:43Z</time>
      </trkpt>
      <trkpt lat="43.97" lon="5.72672">
        <ele>543</ele>
        <time>2020-02-13T12:46:54Z</time>
      </trkpt>
      <trkpt lat="43.97004" lon="5.7267">
        <ele>542</ele>
        <time>2020-02-13T12:47:00Z</time>
      </trkpt>
      <trkpt lat="43.9701" lon="5.72667">
        <ele>541</ele>
        <time>2020-02-13T12:47:08Z</time>
      </trkpt>
      <trkpt lat="43.97036" lon="5.7266">
        <ele>537</ele>
        <time>2020-02-13T12:47:40Z</time>
      </trkpt>
      <trkpt lat="43.9704" lon="5.72658">
        <ele>537</ele>
        <time>2020-02-13T12:47:45Z</time>
      </trkpt>
      <trkpt lat="43.97048" lon="5.72658">
        <ele>536</ele>
        <time>2020-02-13T12:47:53Z</time>
      </trkpt>
      <trkpt lat="43.97051" lon="5.72664">
        <ele>536</ele>
        <time>2020-02-13T12:47:58Z</time>
      </trkpt>
      <trkpt lat="43.97065" lon="5.7267">
        <ele>534</ele>
        <time>2020-02-13T12:48:11Z</time>
      </trkpt>
      <trkpt lat="43.97071" lon="5.72674">
        <ele>534</ele>
        <time>2020-02-13T12:48:18Z</time>
      </trkpt>
      <trkpt lat="43.9708" lon="5.72688">
        <ele>534</ele>
        <time>2020-02-13T12:48:27Z</time>
      </trkpt>
      <trkpt lat="43.97084" lon="5.72692">
        <ele>534</ele>
        <time>2020-02-13T12:48:31Z</time>
      </trkpt>
      <trkpt lat="43.97097" lon="5.72718">
        <ele>534</ele>
        <time>2020-02-13T12:48:47Z</time>
      </trkpt>
      <trkpt lat="43.97099" lon="5.72724">
        <ele>534</ele>
        <time>2020-02-13T12:48:51Z</time>
      </trkpt>
      <trkpt lat="43.97103" lon="5.72728">
        <ele>533</ele>
        <time>2020-02-13T12:48:55Z</time>
      </trkpt>
      <trkpt lat="43.97112" lon="5.72734">
        <ele>534</ele>
        <time>2020-02-13T12:49:04Z</time>
      </trkpt>
      <trkpt lat="43.97116" lon="5.72736">
        <ele>534</ele>
        <time>2020-02-13T12:49:08Z</time>
      </trkpt>
      <trkpt lat="43.97122" lon="5.72736">
        <ele>534</ele>
        <time>2020-02-13T12:49:12Z</time>
      </trkpt>
      <trkpt lat="43.97134" lon="5.72741">
        <ele>536</ele>
        <time>2020-02-13T12:49:26Z</time>
      </trkpt>
      <trkpt lat="43.97144" lon="5.72739">
        <ele>536</ele>
        <time>2020-02-13T12:49:34Z</time>
      </trkpt>
      <trkpt lat="43.97151" lon="5.72739">
        <ele>537</ele>
        <time>2020-02-13T12:49:43Z</time>
      </trkpt>
      <trkpt lat="43.97163" lon="5.7274">
        <ele>538</ele>
        <time>2020-02-13T12:49:54Z</time>
      </trkpt>
      <trkpt lat="43.97167" lon="5.72741">
        <ele>537</ele>
        <time>2020-02-13T12:49:58Z</time>
      </trkpt>
      <trkpt lat="43.97174" lon="5.72739">
        <ele>537</ele>
        <time>2020-02-13T12:50:05Z</time>
      </trkpt>
      <trkpt lat="43.97184" lon="5.72724">
        <ele>536</ele>
        <time>2020-02-13T12:50:22Z</time>
      </trkpt>
      <trkpt lat="43.97191" lon="5.72721">
        <ele>536</ele>
        <time>2020-02-13T12:50:29Z</time>
      </trkpt>
      <trkpt lat="43.97196" lon="5.72724">
        <ele>537</ele>
        <time>2020-02-13T12:50:34Z</time>
      </trkpt>
      <trkpt lat="43.97212" lon="5.72748">
        <ele>540</ele>
        <time>2020-02-13T12:50:58Z</time>
      </trkpt>
      <trkpt lat="43.97218" lon="5.72763">
        <ele>542</ele>
        <time>2020-02-13T12:51:11Z</time>
      </trkpt>
      <trkpt lat="43.97222" lon="5.72767">
        <ele>542</ele>
        <time>2020-02-13T12:51:16Z</time>
      </trkpt>
      <trkpt lat="43.97229" lon="5.72777">
        <ele>543</ele>
        <time>2020-02-13T12:51:24Z</time>
      </trkpt>
      <trkpt lat="43.97238" lon="5.72787">
        <ele>543</ele>
        <time>2020-02-13T12:51:35Z</time>
      </trkpt>
      <trkpt lat="43.97243" lon="5.72795">
        <ele>544</ele>
        <time>2020-02-13T12:51:44Z</time>
      </trkpt>
      <trkpt lat="43.97257" lon="5.72806">
        <ele>545</ele>
        <time>2020-02-13T12:51:56Z</time>
      </trkpt>
      <trkpt lat="43.9726" lon="5.72812">
        <ele>546</ele>
        <time>2020-02-13T12:52:01Z</time>
      </trkpt>
      <trkpt lat="43.97263" lon="5.72816">
        <ele>546</ele>
        <time>2020-02-13T12:52:05Z</time>
      </trkpt>
      <trkpt lat="43.97267" lon="5.72819">
        <ele>547</ele>
        <time>2020-02-13T12:52:09Z</time>
      </trkpt>
      <trkpt lat="43.97271" lon="5.72824">
        <ele>547</ele>
        <time>2020-02-13T12:52:13Z</time>
      </trkpt>
      <trkpt lat="43.97278" lon="5.72828">
        <ele>547</ele>
        <time>2020-02-13T12:52:20Z</time>
      </trkpt>
      <trkpt lat="43.97281" lon="5.72832">
        <ele>548</ele>
        <time>2020-02-13T12:52:23Z</time>
      </trkpt>
      <trkpt lat="43.97312" lon="5.72854">
        <ele>549</ele>
        <time>2020-02-13T12:52:54Z</time>
      </trkpt>
      <trkpt lat="43.97318" lon="5.72856">
        <ele>549</ele>
        <time>2020-02-13T12:52:59Z</time>
      </trkpt>
      <trkpt lat="43.97322" lon="5.72856">
        <ele>549</ele>
        <time>2020-02-13T12:53:02Z</time>
      </trkpt>
      <trkpt lat="43.97327" lon="5.7286">
        <ele>549</ele>
        <time>2020-02-13T12:53:07Z</time>
      </trkpt>
      <trkpt lat="43.97352" lon="5.7287">
        <ele>550</ele>
        <time>2020-02-13T12:53:26Z</time>
      </trkpt>
      <trkpt lat="43.97357" lon="5.72874">
        <ele>550</ele>
        <time>2020-02-13T12:53:30Z</time>
      </trkpt>
      <trkpt lat="43.97371" lon="5.72893">
        <ele>549</ele>
        <time>2020-02-13T12:53:44Z</time>
      </trkpt>
      <trkpt lat="43.97378" lon="5.72905">
        <ele>549</ele>
        <time>2020-02-13T12:53:57Z</time>
      </trkpt>
      <trkpt lat="43.97379" lon="5.72913">
        <ele>550</ele>
        <time>2020-02-13T12:54:09Z</time>
      </trkpt>
      <trkpt lat="43.97386" lon="5.72919">
        <ele>551</ele>
        <time>2020-02-13T12:55:58Z</time>
      </trkpt>
      <trkpt lat="43.97394" lon="5.72921">
        <ele>551</ele>
        <time>2020-02-13T12:56:07Z</time>
      </trkpt>
      <trkpt lat="43.97399" lon="5.72923">
        <ele>551</ele>
        <time>2020-02-13T12:56:12Z</time>
      </trkpt>
      <trkpt lat="43.97415" lon="5.72917">
        <ele>552</ele>
        <time>2020-02-13T12:56:25Z</time>
      </trkpt>
      <trkpt lat="43.97419" lon="5.72913">
        <ele>553</ele>
        <time>2020-02-13T12:56:30Z</time>
      </trkpt>
      <trkpt lat="43.97423" lon="5.72911">
        <ele>553</ele>
        <time>2020-02-13T12:56:35Z</time>
      </trkpt>
      <trkpt lat="43.9743" lon="5.72905">
        <ele>553</ele>
        <time>2020-02-13T12:56:45Z</time>
      </trkpt>
      <trkpt lat="43.97442" lon="5.72905">
        <ele>554</ele>
        <time>2020-02-13T12:56:56Z</time>
      </trkpt>
      <trkpt lat="43.97449" lon="5.72911">
        <ele>555</ele>
        <time>2020-02-13T12:57:07Z</time>
      </trkpt>
      <trkpt lat="43.97453" lon="5.72914">
        <ele>555</ele>
        <time>2020-02-13T12:57:11Z</time>
      </trkpt>
      <trkpt lat="43.97455" lon="5.72919">
        <ele>556</ele>
        <time>2020-02-13T12:57:19Z</time>
      </trkpt>
      <trkpt lat="43.97467" lon="5.72928">
        <ele>558</ele>
        <time>2020-02-13T12:57:32Z</time>
      </trkpt>
      <trkpt lat="43.97478" lon="5.72928">
        <ele>560</ele>
        <time>2020-02-13T12:57:46Z</time>
      </trkpt>
      <trkpt lat="43.97485" lon="5.72925">
        <ele>561</ele>
        <time>2020-02-13T12:58:05Z</time>
      </trkpt>
      <trkpt lat="43.97493" lon="5.72923">
        <ele>562</ele>
        <time>2020-02-13T12:58:14Z</time>
      </trkpt>
      <trkpt lat="43.97504" lon="5.72916">
        <ele>565</ele>
        <time>2020-02-13T12:58:30Z</time>
      </trkpt>
      <trkpt lat="43.97512" lon="5.72912">
        <ele>566</ele>
        <time>2020-02-13T12:58:41Z</time>
      </trkpt>
      <trkpt lat="43.97528" lon="5.729">
        <ele>569</ele>
        <time>2020-02-13T12:59:03Z</time>
      </trkpt>
      <trkpt lat="43.97541" lon="5.72894">
        <ele>570</ele>
        <time>2020-02-13T12:59:19Z</time>
      </trkpt>
      <trkpt lat="43.97551" lon="5.72885">
        <ele>572</ele>
        <time>2020-02-13T12:59:35Z</time>
      </trkpt>
      <trkpt lat="43.97556" lon="5.72884">
        <ele>572</ele>
        <time>2020-02-13T12:59:40Z</time>
      </trkpt>
      <trkpt lat="43.97579" lon="5.72881">
        <ele>568</ele>
        <time>2020-02-13T13:00:06Z</time>
      </trkpt>
      <trkpt lat="43.97586" lon="5.72881">
        <ele>567</ele>
        <time>2020-02-13T13:00:13Z</time>
      </trkpt>
      <trkpt lat="43.9759" lon="5.72879">
        <ele>566</ele>
        <time>2020-02-13T13:00:20Z</time>
      </trkpt>
      <trkpt lat="43.976" lon="5.72878">
        <ele>565</ele>
        <time>2020-02-13T13:00:30Z</time>
      </trkpt>
      <trkpt lat="43.97608" lon="5.72879">
        <ele>564</ele>
        <time>2020-02-13T13:00:40Z</time>
      </trkpt>
      <trkpt lat="43.97643" lon="5.72871">
        <ele>560</ele>
        <time>2020-02-13T13:01:13Z</time>
      </trkpt>
      <trkpt lat="43.97654" lon="5.72873">
        <ele>560</ele>
        <time>2020-02-13T13:01:22Z</time>
      </trkpt>
      <trkpt lat="43.97659" lon="5.72872">
        <ele>560</ele>
        <time>2020-02-13T13:01:25Z</time>
      </trkpt>
      <trkpt lat="43.97664" lon="5.7287">
        <ele>560</ele>
        <time>2020-02-13T13:01:31Z</time>
      </trkpt>
      <trkpt lat="43.97669" lon="5.72867">
        <ele>559</ele>
        <time>2020-02-13T13:01:36Z</time>
      </trkpt>
      <trkpt lat="43.97675" lon="5.72865">
        <ele>558</ele>
        <time>2020-02-13T13:01:42Z</time>
      </trkpt>
      <trkpt lat="43.9768" lon="5.72865">
        <ele>557</ele>
        <time>2020-02-13T13:01:51Z</time>
      </trkpt>
      <trkpt lat="43.97712" lon="5.72853">
        <ele>555</ele>
        <time>2020-02-13T13:02:25Z</time>
      </trkpt>
      <trkpt lat="43.97716" lon="5.7285">
        <ele>555</ele>
        <time>2020-02-13T13:02:28Z</time>
      </trkpt>
      <trkpt lat="43.97719" lon="5.72845">
        <ele>554</ele>
        <time>2020-02-13T13:02:36Z</time>
      </trkpt>
      <trkpt lat="43.97733" lon="5.72837">
        <ele>552</ele>
        <time>2020-02-13T13:02:51Z</time>
      </trkpt>
      <trkpt lat="43.97747" lon="5.72831">
        <ele>552</ele>
        <time>2020-02-13T13:03:01Z</time>
      </trkpt>
      <trkpt lat="43.97764" lon="5.72833">
        <ele>551</ele>
        <time>2020-02-13T13:03:22Z</time>
      </trkpt>
      <trkpt lat="43.97771" lon="5.72833">
        <ele>551</ele>
        <time>2020-02-13T13:03:33Z</time>
      </trkpt>
      <trkpt lat="43.97781" lon="5.72836">
        <ele>554</ele>
        <time>2020-02-13T13:03:47Z</time>
      </trkpt>
      <trkpt lat="43.97786" lon="5.72839">
        <ele>554</ele>
        <time>2020-02-13T13:03:52Z</time>
      </trkpt>
      <trkpt lat="43.97791" lon="5.72843">
        <ele>554</ele>
        <time>2020-02-13T13:03:56Z</time>
      </trkpt>
      <trkpt lat="43.978" lon="5.72845">
        <ele>555</ele>
        <time>2020-02-13T13:04:06Z</time>
      </trkpt>
      <trkpt lat="43.97805" lon="5.7285">
        <ele>555</ele>
        <time>2020-02-13T13:04:10Z</time>
      </trkpt>
      <trkpt lat="43.97822" lon="5.72854">
        <ele>555</ele>
        <time>2020-02-13T13:04:29Z</time>
      </trkpt>
      <trkpt lat="43.97829" lon="5.7285">
        <ele>555</ele>
        <time>2020-02-13T13:04:36Z</time>
      </trkpt>
      <trkpt lat="43.97834" lon="5.72845">
        <ele>555</ele>
        <time>2020-02-13T13:04:41Z</time>
      </trkpt>
      <trkpt lat="43.97839" lon="5.72843">
        <ele>555</ele>
        <time>2020-02-13T13:04:46Z</time>
      </trkpt>
      <trkpt lat="43.97845" lon="5.72839">
        <ele>556</ele>
        <time>2020-02-13T13:04:55Z</time>
      </trkpt>
      <trkpt lat="43.97852" lon="5.72831">
        <ele>557</ele>
        <time>2020-02-13T13:05:05Z</time>
      </trkpt>
      <trkpt lat="43.97858" lon="5.72825">
        <ele>558</ele>
        <time>2020-02-13T13:05:14Z</time>
      </trkpt>
      <trkpt lat="43.97865" lon="5.72831">
        <ele>559</ele>
        <time>2020-02-13T13:05:25Z</time>
      </trkpt>
      <trkpt lat="43.97869" lon="5.72838">
        <ele>559</ele>
        <time>2020-02-13T13:05:37Z</time>
      </trkpt>
      <trkpt lat="43.97867" lon="5.72845">
        <ele>559</ele>
        <time>2020-02-13T13:06:43Z</time>
      </trkpt>
      <trkpt lat="43.97872" lon="5.7285">
        <ele>560</ele>
        <time>2020-02-13T13:07:52Z</time>
      </trkpt>
      <trkpt lat="43.97879" lon="5.72858">
        <ele>560</ele>
        <time>2020-02-13T13:08:04Z</time>
      </trkpt>
      <trkpt lat="43.97883" lon="5.72864">
        <ele>560</ele>
        <time>2020-02-13T13:08:10Z</time>
      </trkpt>
      <trkpt lat="43.97889" lon="5.72878">
        <ele>560</ele>
        <time>2020-02-13T13:08:21Z</time>
      </trkpt>
      <trkpt lat="43.97892" lon="5.72884">
        <ele>560</ele>
        <time>2020-02-13T13:08:26Z</time>
      </trkpt>
      <trkpt lat="43.97894" lon="5.72891">
        <ele>560</ele>
        <time>2020-02-13T13:08:34Z</time>
      </trkpt>
      <trkpt lat="43.97897" lon="5.72897">
        <ele>560</ele>
        <time>2020-02-13T13:08:38Z</time>
      </trkpt>
      <trkpt lat="43.97903" lon="5.72903">
        <ele>559</ele>
        <time>2020-02-13T13:08:47Z</time>
      </trkpt>
      <trkpt lat="43.97909" lon="5.72913">
        <ele>558</ele>
        <time>2020-02-13T13:09:00Z</time>
      </trkpt>
      <trkpt lat="43.97914" lon="5.72917">
        <ele>557</ele>
        <time>2020-02-13T13:09:06Z</time>
      </trkpt>
      <trkpt lat="43.97919" lon="5.72919">
        <ele>556</ele>
        <time>2020-02-13T13:09:14Z</time>
      </trkpt>
      <trkpt lat="43.97924" lon="5.72918">
        <ele>555</ele>
        <time>2020-02-13T13:09:19Z</time>
      </trkpt>
      <trkpt lat="43.97928" lon="5.72915">
        <ele>554</ele>
        <time>2020-02-13T13:09:27Z</time>
      </trkpt>
      <trkpt lat="43.97937" lon="5.72911">
        <ele>552</ele>
        <time>2020-02-13T13:09:39Z</time>
      </trkpt>
      <trkpt lat="43.97947" lon="5.72903">
        <ele>551</ele>
        <time>2020-02-13T13:09:57Z</time>
      </trkpt>
      <trkpt lat="43.97952" lon="5.72895">
        <ele>550</ele>
        <time>2020-02-13T13:10:06Z</time>
      </trkpt>
      <trkpt lat="43.97961" lon="5.72889">
        <ele>549</ele>
        <time>2020-02-13T13:10:17Z</time>
      </trkpt>
      <trkpt lat="43.97984" lon="5.72884">
        <ele>547</ele>
        <time>2020-02-13T13:10:40Z</time>
      </trkpt>
      <trkpt lat="43.98016" lon="5.72882">
        <ele>548</ele>
        <time>2020-02-13T13:11:11Z</time>
      </trkpt>
      <trkpt lat="43.98026" lon="5.7288">
        <ele>548</ele>
        <time>2020-02-13T13:11:19Z</time>
      </trkpt>
      <trkpt lat="43.98038" lon="5.72879">
        <ele>548</ele>
        <time>2020-02-13T13:11:31Z</time>
      </trkpt>
      <trkpt lat="43.98061" lon="5.72867">
        <ele>548</ele>
        <time>2020-02-13T13:11:54Z</time>
      </trkpt>
      <trkpt lat="43.9807" lon="5.72858">
        <ele>549</ele>
        <time>2020-02-13T13:12:05Z</time>
      </trkpt>
      <trkpt lat="43.98074" lon="5.72852">
        <ele>549</ele>
        <time>2020-02-13T13:12:10Z</time>
      </trkpt>
      <trkpt lat="43.98078" lon="5.7285">
        <ele>549</ele>
        <time>2020-02-13T13:12:14Z</time>
      </trkpt>
      <trkpt lat="43.98083" lon="5.72847">
        <ele>549</ele>
        <time>2020-02-13T13:12:19Z</time>
      </trkpt>
      <trkpt lat="43.98087" lon="5.72843">
        <ele>549</ele>
        <time>2020-02-13T13:12:23Z</time>
      </trkpt>
      <trkpt lat="43.98092" lon="5.72841">
        <ele>549</ele>
        <time>2020-02-13T13:12:28Z</time>
      </trkpt>
      <trkpt lat="43.98097" lon="5.72836">
        <ele>549</ele>
        <time>2020-02-13T13:12:34Z</time>
      </trkpt>
      <trkpt lat="43.98102" lon="5.72835">
        <ele>549</ele>
        <time>2020-02-13T13:12:39Z</time>
      </trkpt>
      <trkpt lat="43.98125" lon="5.72806">
        <ele>551</ele>
        <time>2020-02-13T13:13:11Z</time>
      </trkpt>
      <trkpt lat="43.98132" lon="5.72798">
        <ele>552</ele>
        <time>2020-02-13T13:13:18Z</time>
      </trkpt>
      <trkpt lat="43.98148" lon="5.72793">
        <ele>553</ele>
        <time>2020-02-13T13:13:36Z</time>
      </trkpt>
      <trkpt lat="43.98166" lon="5.72807">
        <ele>553</ele>
        <time>2020-02-13T13:13:54Z</time>
      </trkpt>
      <trkpt lat="43.98172" lon="5.72815">
        <ele>553</ele>
        <time>2020-02-13T13:14:02Z</time>
      </trkpt>
      <trkpt lat="43.98177" lon="5.72819">
        <ele>553</ele>
        <time>2020-02-13T13:14:07Z</time>
      </trkpt>
      <trkpt lat="43.9818" lon="5.72824">
        <ele>553</ele>
        <time>2020-02-13T13:14:11Z</time>
      </trkpt>
      <trkpt lat="43.98189" lon="5.72829">
        <ele>552</ele>
        <time>2020-02-13T13:14:18Z</time>
      </trkpt>
      <trkpt lat="43.98198" lon="5.72831">
        <ele>552</ele>
        <time>2020-02-13T13:14:27Z</time>
      </trkpt>
      <trkpt lat="43.98205" lon="5.72829">
        <ele>553</ele>
        <time>2020-02-13T13:14:35Z</time>
      </trkpt>
      <trkpt lat="43.98209" lon="5.72827">
        <ele>553</ele>
        <time>2020-02-13T13:14:40Z</time>
      </trkpt>
      <trkpt lat="43.98218" lon="5.72823">
        <ele>553</ele>
        <time>2020-02-13T13:14:50Z</time>
      </trkpt>
      <trkpt lat="43.98226" lon="5.72833">
        <ele>554</ele>
        <time>2020-02-13T13:14:58Z</time>
      </trkpt>
      <trkpt lat="43.98229" lon="5.72838">
        <ele>554</ele>
        <time>2020-02-13T13:15:02Z</time>
      </trkpt>
      <trkpt lat="43.98238" lon="5.72846">
        <ele>554</ele>
        <time>2020-02-13T13:15:10Z</time>
      </trkpt>
      <trkpt lat="43.9825" lon="5.72866">
        <ele>556</ele>
        <time>2020-02-13T13:15:27Z</time>
      </trkpt>
      <trkpt lat="43.98252" lon="5.72873">
        <ele>556</ele>
        <time>2020-02-13T13:15:32Z</time>
      </trkpt>
      <trkpt lat="43.98271" lon="5.72904">
        <ele>560</ele>
        <time>2020-02-13T13:16:07Z</time>
      </trkpt>
      <trkpt lat="43.98275" lon="5.72908">
        <ele>561</ele>
        <time>2020-02-13T13:16:14Z</time>
      </trkpt>
      <trkpt lat="43.98278" lon="5.72913">
        <ele>562</ele>
        <time>2020-02-13T13:16:20Z</time>
      </trkpt>
      <trkpt lat="43.98292" lon="5.72914">
        <ele>565</ele>
        <time>2020-02-13T13:16:40Z</time>
      </trkpt>
      <trkpt lat="43.983" lon="5.7292">
        <ele>566</ele>
        <time>2020-02-13T13:16:53Z</time>
      </trkpt>
      <trkpt lat="43.98306" lon="5.72929">
        <ele>568</ele>
        <time>2020-02-13T13:17:05Z</time>
      </trkpt>
      <trkpt lat="43.98308" lon="5.72936">
        <ele>569</ele>
        <time>2020-02-13T13:17:11Z</time>
      </trkpt>
      <trkpt lat="43.98315" lon="5.72946">
        <ele>570</ele>
        <time>2020-02-13T13:17:21Z</time>
      </trkpt>
      <trkpt lat="43.98322" lon="5.72955">
        <ele>570</ele>
        <time>2020-02-13T13:17:30Z</time>
      </trkpt>
      <trkpt lat="43.98329" lon="5.72966">
        <ele>569</ele>
        <time>2020-02-13T13:17:39Z</time>
      </trkpt>
      <trkpt lat="43.98334" lon="5.72968">
        <ele>569</ele>
        <time>2020-02-13T13:17:44Z</time>
      </trkpt>
      <trkpt lat="43.98358" lon="5.72995">
        <ele>568</ele>
        <time>2020-02-13T13:18:13Z</time>
      </trkpt>
      <trkpt lat="43.98364" lon="5.73">
        <ele>568</ele>
        <time>2020-02-13T13:18:20Z</time>
      </trkpt>
      <trkpt lat="43.98373" lon="5.7301">
        <ele>568</ele>
        <time>2020-02-13T13:18:32Z</time>
      </trkpt>
      <trkpt lat="43.98377" lon="5.73016">
        <ele>568</ele>
        <time>2020-02-13T13:18:39Z</time>
      </trkpt>
      <trkpt lat="43.98382" lon="5.73019">
        <ele>568</ele>
        <time>2020-02-13T13:18:44Z</time>
      </trkpt>
      <trkpt lat="43.98386" lon="5.73024">
        <ele>568</ele>
        <time>2020-02-13T13:18:48Z</time>
      </trkpt>
      <trkpt lat="43.98398" lon="5.73033">
        <ele>569</ele>
        <time>2020-02-13T13:19:04Z</time>
      </trkpt>
      <trkpt lat="43.98402" lon="5.73037">
        <ele>569</ele>
        <time>2020-02-13T13:19:08Z</time>
      </trkpt>
      <trkpt lat="43.98405" lon="5.73042">
        <ele>569</ele>
        <time>2020-02-13T13:19:12Z</time>
      </trkpt>
      <trkpt lat="43.98409" lon="5.73047">
        <ele>569</ele>
        <time>2020-02-13T13:19:17Z</time>
      </trkpt>
      <trkpt lat="43.9842" lon="5.73056">
        <ele>569</ele>
        <time>2020-02-13T13:19:29Z</time>
      </trkpt>
      <trkpt lat="43.98425" lon="5.73061">
        <ele>569</ele>
        <time>2020-02-13T13:19:37Z</time>
      </trkpt>
      <trkpt lat="43.98435" lon="5.73066">
        <ele>570</ele>
        <time>2020-02-13T13:19:54Z</time>
      </trkpt>
      <trkpt lat="43.98442" lon="5.73062">
        <ele>571</ele>
        <time>2020-02-13T13:20:01Z</time>
      </trkpt>
      <trkpt lat="43.98448" lon="5.73056">
        <ele>571</ele>
        <time>2020-02-13T13:20:15Z</time>
      </trkpt>
      <trkpt lat="43.98464" lon="5.73051">
        <ele>573</ele>
        <time>2020-02-13T13:20:31Z</time>
      </trkpt>
      <trkpt lat="43.98469" lon="5.73047">
        <ele>573</ele>
        <time>2020-02-13T13:20:41Z</time>
      </trkpt>
      <trkpt lat="43.98479" lon="5.73026">
        <ele>573</ele>
        <time>2020-02-13T13:20:57Z</time>
      </trkpt>
      <trkpt lat="43.98478" lon="5.73018">
        <ele>573</ele>
        <time>2020-02-13T13:21:04Z</time>
      </trkpt>
      <trkpt lat="43.98492" lon="5.73017">
        <ele>573</ele>
        <time>2020-02-13T13:21:28Z</time>
      </trkpt>
      <trkpt lat="43.98495" lon="5.73025">
        <ele>573</ele>
        <time>2020-02-13T13:21:32Z</time>
      </trkpt>
      <trkpt lat="43.98508" lon="5.73021">
        <ele>573</ele>
        <time>2020-02-13T13:21:42Z</time>
      </trkpt>
      <trkpt lat="43.98519" lon="5.7302">
        <ele>572</ele>
        <time>2020-02-13T13:21:57Z</time>
      </trkpt>
      <trkpt lat="43.98526" lon="5.73014">
        <ele>572</ele>
        <time>2020-02-13T13:22:07Z</time>
      </trkpt>
      <trkpt lat="43.98531" lon="5.73014">
        <ele>572</ele>
        <time>2020-02-13T13:22:09Z</time>
      </trkpt>
      <trkpt lat="43.98538" lon="5.73015">
        <ele>571</ele>
        <time>2020-02-13T13:22:16Z</time>
      </trkpt>
      <trkpt lat="43.9854" lon="5.73023">
        <ele>571</ele>
        <time>2020-02-13T13:22:22Z</time>
      </trkpt>
      <trkpt lat="43.9854" lon="5.73041">
        <ele>570</ele>
        <time>2020-02-13T13:22:37Z</time>
      </trkpt>
      <trkpt lat="43.98537" lon="5.7305">
        <ele>570</ele>
        <time>2020-02-13T13:22:52Z</time>
      </trkpt>
      <trkpt lat="43.98534" lon="5.73056">
        <ele>570</ele>
        <time>2020-02-13T13:23:04Z</time>
      </trkpt>
    </trkseg>
  </trk>
</gpx>